<?xml version="1.0" encoding="UTF-8" standalone="no" ?>
<gpx xmlns="http://www.topografix.com/GPX/1/1" xmlns:xsi="http://www.w3.org/2001/XMLSchema-instance" xsi:schemaLocation="http://www.topografix.com/GPX/1/1 http://www.topografix.com/GPX/1/1/gpx.xsd" version="1.1" creator="VisuGPX - https://www.visugpx.com">
  <metadata>
    <name>trail 14km lac st André</name>
    <desc><![CDATA[Good ]]></desc>
  </metadata>
  <trk>
    <name><![CDATA[trail 14km lac st André_1]]></name>
    <trkseg>
      <trkpt lat="45.46831" lon="5.9925">
        <ele>272</ele>
        <time>2012-12-21T11:17:24.000Z</time>
      </trkpt>
      <trkpt lat="45.46833" lon="5.99258">
        <ele>272</ele>
        <time>2012-12-21T11:17:27.000Z</time>
      </trkpt>
      <trkpt lat="45.46831" lon="5.99269">
        <ele>272</ele>
        <time>2012-12-21T11:17:29.000Z</time>
      </trkpt>
      <trkpt lat="45.46821" lon="5.99337">
        <ele>271</ele>
        <time>2012-12-21T11:17:42.000Z</time>
      </trkpt>
      <trkpt lat="45.46823" lon="5.99346">
        <ele>271</ele>
        <time>2012-12-21T11:17:44.000Z</time>
      </trkpt>
      <trkpt lat="45.4683" lon="5.99416">
        <ele>270</ele>
        <time>2012-12-21T11:18:00.000Z</time>
      </trkpt>
      <trkpt lat="45.46836" lon="5.99427">
        <ele>270</ele>
        <time>2012-12-21T11:18:03.000Z</time>
      </trkpt>
      <trkpt lat="45.46844" lon="5.99435">
        <ele>270</ele>
        <time>2012-12-21T11:18:05.000Z</time>
      </trkpt>
      <trkpt lat="45.4685" lon="5.99435">
        <ele>270</ele>
        <time>2012-12-21T11:18:08.000Z</time>
      </trkpt>
      <trkpt lat="45.46884" lon="5.99436">
        <ele>269</ele>
        <time>2012-12-21T11:18:15.000Z</time>
      </trkpt>
      <trkpt lat="45.46896" lon="5.9944">
        <ele>269</ele>
        <time>2012-12-21T11:18:19.000Z</time>
      </trkpt>
      <trkpt lat="45.46936" lon="5.99457">
        <ele>268</ele>
        <time>2012-12-21T11:18:29.000Z</time>
      </trkpt>
      <trkpt lat="45.46944" lon="5.99457">
        <ele>268</ele>
        <time>2012-12-21T11:18:31.000Z</time>
      </trkpt>
      <trkpt lat="45.46955" lon="5.99454">
        <ele>268</ele>
        <time>2012-12-21T11:18:35.000Z</time>
      </trkpt>
      <trkpt lat="45.46964" lon="5.99445">
        <ele>267</ele>
        <time>2012-12-21T11:18:38.000Z</time>
      </trkpt>
      <trkpt lat="45.46973" lon="5.99422">
        <ele>267</ele>
        <time>2012-12-21T11:18:42.000Z</time>
      </trkpt>
      <trkpt lat="45.46975" lon="5.99412">
        <ele>267</ele>
        <time>2012-12-21T11:18:45.000Z</time>
      </trkpt>
      <trkpt lat="45.46987" lon="5.99341">
        <ele>267</ele>
        <time>2012-12-21T11:19:00.000Z</time>
      </trkpt>
      <trkpt lat="45.47003" lon="5.99272">
        <ele>268</ele>
        <time>2012-12-21T11:19:16.000Z</time>
      </trkpt>
      <trkpt lat="45.47019" lon="5.9921">
        <ele>268</ele>
        <time>2012-12-21T11:19:31.000Z</time>
      </trkpt>
      <trkpt lat="45.47036" lon="5.99143">
        <ele>268</ele>
        <time>2012-12-21T11:19:45.000Z</time>
      </trkpt>
      <trkpt lat="45.47057" lon="5.99081">
        <ele>268</ele>
        <time>2012-12-21T11:20:01.000Z</time>
      </trkpt>
      <trkpt lat="45.47063" lon="5.9907">
        <ele>267</ele>
        <time>2012-12-21T11:20:03.000Z</time>
      </trkpt>
      <trkpt lat="45.47081" lon="5.99046">
        <ele>267</ele>
        <time>2012-12-21T11:20:12.000Z</time>
      </trkpt>
      <trkpt lat="45.47085" lon="5.99044">
        <ele>267</ele>
        <time>2012-12-21T11:20:15.000Z</time>
      </trkpt>
      <trkpt lat="45.47094" lon="5.99042">
        <ele>267</ele>
        <time>2012-12-21T11:20:17.000Z</time>
      </trkpt>
      <trkpt lat="45.47105" lon="5.9904">
        <ele>266</ele>
        <time>2012-12-21T11:20:20.000Z</time>
      </trkpt>
      <trkpt lat="45.47112" lon="5.99037">
        <ele>266</ele>
        <time>2012-12-21T11:20:23.000Z</time>
      </trkpt>
      <trkpt lat="45.47121" lon="5.9903">
        <ele>266</ele>
        <time>2012-12-21T11:20:25.000Z</time>
      </trkpt>
      <trkpt lat="45.4715" lon="5.99013">
        <ele>265</ele>
        <time>2012-12-21T11:20:36.000Z</time>
      </trkpt>
      <trkpt lat="45.4716" lon="5.99011">
        <ele>265</ele>
        <time>2012-12-21T11:20:39.000Z</time>
      </trkpt>
      <trkpt lat="45.47169" lon="5.99007">
        <ele>265</ele>
        <time>2012-12-21T11:20:41.000Z</time>
      </trkpt>
      <trkpt lat="45.47214" lon="5.98999">
        <ele>265</ele>
        <time>2012-12-21T11:20:57.000Z</time>
      </trkpt>
      <trkpt lat="45.47216" lon="5.99009">
        <ele>265</ele>
        <time>2012-12-21T11:21:00.000Z</time>
      </trkpt>
      <trkpt lat="45.47222" lon="5.99025">
        <ele>264</ele>
        <time>2012-12-21T11:21:02.000Z</time>
      </trkpt>
      <trkpt lat="45.47237" lon="5.99057">
        <ele>263</ele>
        <time>2012-12-21T11:21:10.000Z</time>
      </trkpt>
      <trkpt lat="45.47252" lon="5.99095">
        <ele>262</ele>
        <time>2012-12-21T11:21:20.000Z</time>
      </trkpt>
      <trkpt lat="45.47274" lon="5.9916">
        <ele>262</ele>
        <time>2012-12-21T11:21:36.000Z</time>
      </trkpt>
      <trkpt lat="45.47299" lon="5.99233">
        <ele>262</ele>
        <time>2012-12-21T11:21:52.000Z</time>
      </trkpt>
      <trkpt lat="45.47312" lon="5.99268">
        <ele>261</ele>
        <time>2012-12-21T11:22:00.000Z</time>
      </trkpt>
      <trkpt lat="45.47336" lon="5.99326">
        <ele>261</ele>
        <time>2012-12-21T11:22:14.000Z</time>
      </trkpt>
      <trkpt lat="45.47358" lon="5.9939">
        <ele>261</ele>
        <time>2012-12-21T11:22:29.000Z</time>
      </trkpt>
      <trkpt lat="45.47382" lon="5.99454">
        <ele>261</ele>
        <time>2012-12-21T11:22:44.000Z</time>
      </trkpt>
      <trkpt lat="45.47403" lon="5.99513">
        <ele>262</ele>
        <time>2012-12-21T11:22:58.000Z</time>
      </trkpt>
      <trkpt lat="45.47416" lon="5.99552">
        <ele>261</ele>
        <time>2012-12-21T11:23:08.000Z</time>
      </trkpt>
      <trkpt lat="45.47418" lon="5.99566">
        <ele>261</ele>
        <time>2012-12-21T11:23:11.000Z</time>
      </trkpt>
      <trkpt lat="45.47416" lon="5.99575">
        <ele>261</ele>
        <time>2012-12-21T11:23:13.000Z</time>
      </trkpt>
      <trkpt lat="45.47413" lon="5.99582">
        <ele>261</ele>
        <time>2012-12-21T11:23:16.000Z</time>
      </trkpt>
      <trkpt lat="45.47406" lon="5.99619">
        <ele>261</ele>
        <time>2012-12-21T11:23:24.000Z</time>
      </trkpt>
      <trkpt lat="45.47411" lon="5.99626">
        <ele>261</ele>
        <time>2012-12-21T11:23:27.000Z</time>
      </trkpt>
      <trkpt lat="45.4742" lon="5.99631">
        <ele>261</ele>
        <time>2012-12-21T11:23:29.000Z</time>
      </trkpt>
      <trkpt lat="45.47427" lon="5.99632">
        <ele>261</ele>
        <time>2012-12-21T11:23:32.000Z</time>
      </trkpt>
      <trkpt lat="45.47441" lon="5.99627">
        <ele>261</ele>
        <time>2012-12-21T11:23:34.000Z</time>
      </trkpt>
      <trkpt lat="45.47485" lon="5.99611">
        <ele>261</ele>
        <time>2012-12-21T11:23:47.000Z</time>
      </trkpt>
      <trkpt lat="45.47491" lon="5.99608">
        <ele>261</ele>
        <time>2012-12-21T11:23:49.000Z</time>
      </trkpt>
      <trkpt lat="45.475" lon="5.99606">
        <ele>261</ele>
        <time>2012-12-21T11:23:52.000Z</time>
      </trkpt>
      <trkpt lat="45.47509" lon="5.99608">
        <ele>260</ele>
        <time>2012-12-21T11:23:55.000Z</time>
      </trkpt>
      <trkpt lat="45.47523" lon="5.99607">
        <ele>260</ele>
        <time>2012-12-21T11:24:00.000Z</time>
      </trkpt>
      <trkpt lat="45.47531" lon="5.99603">
        <ele>260</ele>
        <time>2012-12-21T11:24:03.000Z</time>
      </trkpt>
      <trkpt lat="45.4754" lon="5.99597">
        <ele>260</ele>
        <time>2012-12-21T11:24:05.000Z</time>
      </trkpt>
      <trkpt lat="45.4756" lon="5.99583">
        <ele>261</ele>
        <time>2012-12-21T11:24:13.000Z</time>
      </trkpt>
      <trkpt lat="45.47578" lon="5.99576">
        <ele>261</ele>
        <time>2012-12-21T11:24:19.000Z</time>
      </trkpt>
      <trkpt lat="45.47589" lon="5.99574">
        <ele>261</ele>
        <time>2012-12-21T11:24:21.000Z</time>
      </trkpt>
      <trkpt lat="45.47613" lon="5.99565">
        <ele>261</ele>
        <time>2012-12-21T11:24:29.000Z</time>
      </trkpt>
      <trkpt lat="45.47618" lon="5.99562">
        <ele>262</ele>
        <time>2012-12-21T11:24:32.000Z</time>
      </trkpt>
      <trkpt lat="45.47628" lon="5.99559">
        <ele>262</ele>
        <time>2012-12-21T11:24:35.000Z</time>
      </trkpt>
      <trkpt lat="45.47642" lon="5.99556">
        <ele>262</ele>
        <time>2012-12-21T11:24:39.000Z</time>
      </trkpt>
      <trkpt lat="45.47651" lon="5.99553">
        <ele>263</ele>
        <time>2012-12-21T11:24:41.000Z</time>
      </trkpt>
      <trkpt lat="45.47656" lon="5.9955">
        <ele>263</ele>
        <time>2012-12-21T11:24:44.000Z</time>
      </trkpt>
      <trkpt lat="45.47673" lon="5.99539">
        <ele>263</ele>
        <time>2012-12-21T11:24:50.000Z</time>
      </trkpt>
      <trkpt lat="45.4769" lon="5.99529">
        <ele>264</ele>
        <time>2012-12-21T11:24:56.000Z</time>
      </trkpt>
      <trkpt lat="45.47698" lon="5.99522">
        <ele>264</ele>
        <time>2012-12-21T11:24:59.000Z</time>
      </trkpt>
      <trkpt lat="45.47722" lon="5.99506">
        <ele>264</ele>
        <time>2012-12-21T11:25:07.000Z</time>
      </trkpt>
      <trkpt lat="45.47732" lon="5.99509">
        <ele>264</ele>
        <time>2012-12-21T11:25:10.000Z</time>
      </trkpt>
      <trkpt lat="45.47738" lon="5.99513">
        <ele>264</ele>
        <time>2012-12-21T11:25:12.000Z</time>
      </trkpt>
      <trkpt lat="45.47748" lon="5.99517">
        <ele>265</ele>
        <time>2012-12-21T11:25:15.000Z</time>
      </trkpt>
      <trkpt lat="45.47756" lon="5.99519">
        <ele>265</ele>
        <time>2012-12-21T11:25:17.000Z</time>
      </trkpt>
      <trkpt lat="45.47761" lon="5.99521">
        <ele>265</ele>
        <time>2012-12-21T11:25:20.000Z</time>
      </trkpt>
      <trkpt lat="45.47802" lon="5.99531">
        <ele>266</ele>
        <time>2012-12-21T11:25:32.000Z</time>
      </trkpt>
      <trkpt lat="45.47814" lon="5.99531">
        <ele>266</ele>
        <time>2012-12-21T11:25:35.000Z</time>
      </trkpt>
      <trkpt lat="45.47823" lon="5.99532">
        <ele>266</ele>
        <time>2012-12-21T11:25:37.000Z</time>
      </trkpt>
      <trkpt lat="45.47861" lon="5.99538">
        <ele>267</ele>
        <time>2012-12-21T11:25:51.000Z</time>
      </trkpt>
      <trkpt lat="45.47868" lon="5.99537">
        <ele>267</ele>
        <time>2012-12-21T11:25:53.000Z</time>
      </trkpt>
      <trkpt lat="45.47898" lon="5.99534">
        <ele>268</ele>
        <time>2012-12-21T11:26:03.000Z</time>
      </trkpt>
      <trkpt lat="45.47947" lon="5.99536">
        <ele>268</ele>
        <time>2012-12-21T11:26:19.000Z</time>
      </trkpt>
      <trkpt lat="45.47956" lon="5.9954">
        <ele>269</ele>
        <time>2012-12-21T11:26:21.000Z</time>
      </trkpt>
      <trkpt lat="45.47962" lon="5.99543">
        <ele>269</ele>
        <time>2012-12-21T11:26:24.000Z</time>
      </trkpt>
      <trkpt lat="45.48008" lon="5.99568">
        <ele>269</ele>
        <time>2012-12-21T11:26:40.000Z</time>
      </trkpt>
      <trkpt lat="45.48057" lon="5.99588">
        <ele>269</ele>
        <time>2012-12-21T11:26:55.000Z</time>
      </trkpt>
      <trkpt lat="45.48067" lon="5.99593">
        <ele>268</ele>
        <time>2012-12-21T11:26:59.000Z</time>
      </trkpt>
      <trkpt lat="45.48074" lon="5.99595">
        <ele>268</ele>
        <time>2012-12-21T11:27:01.000Z</time>
      </trkpt>
      <trkpt lat="45.48084" lon="5.99597">
        <ele>268</ele>
        <time>2012-12-21T11:27:04.000Z</time>
      </trkpt>
      <trkpt lat="45.48108" lon="5.99603">
        <ele>268</ele>
        <time>2012-12-21T11:27:12.000Z</time>
      </trkpt>
      <trkpt lat="45.48117" lon="5.99606">
        <ele>269</ele>
        <time>2012-12-21T11:27:14.000Z</time>
      </trkpt>
      <trkpt lat="45.48123" lon="5.99609">
        <ele>269</ele>
        <time>2012-12-21T11:27:17.000Z</time>
      </trkpt>
      <trkpt lat="45.48153" lon="5.99619">
        <ele>269</ele>
        <time>2012-12-21T11:27:27.000Z</time>
      </trkpt>
      <trkpt lat="45.48161" lon="5.99621">
        <ele>270</ele>
        <time>2012-12-21T11:27:30.000Z</time>
      </trkpt>
      <trkpt lat="45.48202" lon="5.99623">
        <ele>270</ele>
        <time>2012-12-21T11:27:43.000Z</time>
      </trkpt>
      <trkpt lat="45.48208" lon="5.99623">
        <ele>271</ele>
        <time>2012-12-21T11:27:45.000Z</time>
      </trkpt>
      <trkpt lat="45.48217" lon="5.99624">
        <ele>271</ele>
        <time>2012-12-21T11:27:48.000Z</time>
      </trkpt>
      <trkpt lat="45.48257" lon="5.99642">
        <ele>272</ele>
        <time>2012-12-21T11:27:59.000Z</time>
      </trkpt>
      <trkpt lat="45.48262" lon="5.9965">
        <ele>272</ele>
        <time>2012-12-21T11:28:01.000Z</time>
      </trkpt>
      <trkpt lat="45.48265" lon="5.99657">
        <ele>272</ele>
        <time>2012-12-21T11:28:03.000Z</time>
      </trkpt>
      <trkpt lat="45.48272" lon="5.99665">
        <ele>272</ele>
        <time>2012-12-21T11:28:05.000Z</time>
      </trkpt>
      <trkpt lat="45.48282" lon="5.99681">
        <ele>272</ele>
        <time>2012-12-21T11:28:11.000Z</time>
      </trkpt>
      <trkpt lat="45.48287" lon="5.99686">
        <ele>272</ele>
        <time>2012-12-21T11:28:13.000Z</time>
      </trkpt>
      <trkpt lat="45.48304" lon="5.99709">
        <ele>273</ele>
        <time>2012-12-21T11:28:21.000Z</time>
      </trkpt>
      <trkpt lat="45.48323" lon="5.99729">
        <ele>273</ele>
        <time>2012-12-21T11:28:29.000Z</time>
      </trkpt>
      <trkpt lat="45.48329" lon="5.99732">
        <ele>273</ele>
        <time>2012-12-21T11:28:31.000Z</time>
      </trkpt>
      <trkpt lat="45.48338" lon="5.99737">
        <ele>274</ele>
        <time>2012-12-21T11:28:34.000Z</time>
      </trkpt>
      <trkpt lat="45.48382" lon="5.99762">
        <ele>274</ele>
        <time>2012-12-21T11:28:47.000Z</time>
      </trkpt>
      <trkpt lat="45.48404" lon="5.99765">
        <ele>274</ele>
        <time>2012-12-21T11:28:53.000Z</time>
      </trkpt>
      <trkpt lat="45.4841" lon="5.99762">
        <ele>274</ele>
        <time>2012-12-21T11:28:56.000Z</time>
      </trkpt>
      <trkpt lat="45.48417" lon="5.99754">
        <ele>274</ele>
        <time>2012-12-21T11:28:59.000Z</time>
      </trkpt>
      <trkpt lat="45.48441" lon="5.99737">
        <ele>274</ele>
        <time>2012-12-21T11:29:07.000Z</time>
      </trkpt>
      <trkpt lat="45.48455" lon="5.99729">
        <ele>274</ele>
        <time>2012-12-21T11:29:12.000Z</time>
      </trkpt>
      <trkpt lat="45.48463" lon="5.99727">
        <ele>274</ele>
        <time>2012-12-21T11:29:15.000Z</time>
      </trkpt>
      <trkpt lat="45.48486" lon="5.99725">
        <ele>274</ele>
        <time>2012-12-21T11:29:23.000Z</time>
      </trkpt>
      <trkpt lat="45.48491" lon="5.99729">
        <ele>274</ele>
        <time>2012-12-21T11:29:25.000Z</time>
      </trkpt>
      <trkpt lat="45.48498" lon="5.99744">
        <ele>274</ele>
        <time>2012-12-21T11:29:27.000Z</time>
      </trkpt>
      <trkpt lat="45.48523" lon="5.99786">
        <ele>275</ele>
        <time>2012-12-21T11:29:37.000Z</time>
      </trkpt>
      <trkpt lat="45.48528" lon="5.99798">
        <ele>275</ele>
        <time>2012-12-21T11:29:40.000Z</time>
      </trkpt>
      <trkpt lat="45.48531" lon="5.99808">
        <ele>275</ele>
        <time>2012-12-21T11:29:44.000Z</time>
      </trkpt>
      <trkpt lat="45.48545" lon="5.99877">
        <ele>275</ele>
        <time>2012-12-21T11:30:01.000Z</time>
      </trkpt>
      <trkpt lat="45.48552" lon="5.9989">
        <ele>275</ele>
        <time>2012-12-21T11:30:03.000Z</time>
      </trkpt>
      <trkpt lat="45.48558" lon="5.99898">
        <ele>275</ele>
        <time>2012-12-21T11:30:05.000Z</time>
      </trkpt>
      <trkpt lat="45.48581" lon="5.99939">
        <ele>275</ele>
        <time>2012-12-21T11:30:16.000Z</time>
      </trkpt>
      <trkpt lat="45.48586" lon="5.99951">
        <ele>275</ele>
        <time>2012-12-21T11:30:20.000Z</time>
      </trkpt>
      <trkpt lat="45.48598" lon="5.99984">
        <ele>276</ele>
        <time>2012-12-21T11:30:28.000Z</time>
      </trkpt>
      <trkpt lat="45.48603" lon="5.99991">
        <ele>276</ele>
        <time>2012-12-21T11:30:31.000Z</time>
      </trkpt>
      <trkpt lat="45.48623" lon="6.00017">
        <ele>276</ele>
        <time>2012-12-21T11:30:40.000Z</time>
      </trkpt>
      <trkpt lat="45.48631" lon="6.00018">
        <ele>276</ele>
        <time>2012-12-21T11:30:43.000Z</time>
      </trkpt>
      <trkpt lat="45.48637" lon="6.00016">
        <ele>276</ele>
        <time>2012-12-21T11:30:45.000Z</time>
      </trkpt>
      <trkpt lat="45.4865" lon="6.00009">
        <ele>276</ele>
        <time>2012-12-21T11:30:50.000Z</time>
      </trkpt>
      <trkpt lat="45.48696" lon="5.99987">
        <ele>276</ele>
        <time>2012-12-21T11:31:06.000Z</time>
      </trkpt>
      <trkpt lat="45.48703" lon="5.99985">
        <ele>276</ele>
        <time>2012-12-21T11:31:08.000Z</time>
      </trkpt>
      <trkpt lat="45.4871" lon="5.99984">
        <ele>277</ele>
        <time>2012-12-21T11:31:10.000Z</time>
      </trkpt>
      <trkpt lat="45.48745" lon="5.99982">
        <ele>277</ele>
        <time>2012-12-21T11:31:21.000Z</time>
      </trkpt>
      <trkpt lat="45.48754" lon="5.99982">
        <ele>278</ele>
        <time>2012-12-21T11:31:24.000Z</time>
      </trkpt>
      <trkpt lat="45.48775" lon="5.99986">
        <ele>278</ele>
        <time>2012-12-21T11:31:31.000Z</time>
      </trkpt>
      <trkpt lat="45.48785" lon="5.99991">
        <ele>279</ele>
        <time>2012-12-21T11:31:33.000Z</time>
      </trkpt>
      <trkpt lat="45.48808" lon="6.00003">
        <ele>280</ele>
        <time>2012-12-21T11:31:42.000Z</time>
      </trkpt>
      <trkpt lat="45.4882" lon="6.00012">
        <ele>280</ele>
        <time>2012-12-21T11:31:47.000Z</time>
      </trkpt>
      <trkpt lat="45.48823" lon="6.00023">
        <ele>281</ele>
        <time>2012-12-21T11:31:49.000Z</time>
      </trkpt>
      <trkpt lat="45.48824" lon="6.00031">
        <ele>281</ele>
        <time>2012-12-21T11:31:52.000Z</time>
      </trkpt>
      <trkpt lat="45.48826" lon="6.00051">
        <ele>282</ele>
        <time>2012-12-21T11:31:57.000Z</time>
      </trkpt>
      <trkpt lat="45.4883" lon="6.00076">
        <ele>283</ele>
        <time>2012-12-21T11:32:03.000Z</time>
      </trkpt>
      <trkpt lat="45.48833" lon="6.00087">
        <ele>283</ele>
        <time>2012-12-21T11:32:06.000Z</time>
      </trkpt>
      <trkpt lat="45.48835" lon="6.00093">
        <ele>284</ele>
        <time>2012-12-21T11:32:08.000Z</time>
      </trkpt>
      <trkpt lat="45.48841" lon="6.00099">
        <ele>284</ele>
        <time>2012-12-21T11:32:11.000Z</time>
      </trkpt>
      <trkpt lat="45.48849" lon="6.00105">
        <ele>284</ele>
        <time>2012-12-21T11:32:13.000Z</time>
      </trkpt>
      <trkpt lat="45.48855" lon="6.00105">
        <ele>285</ele>
        <time>2012-12-21T11:32:16.000Z</time>
      </trkpt>
      <trkpt lat="45.48863" lon="6.00104">
        <ele>285</ele>
        <time>2012-12-21T11:32:19.000Z</time>
      </trkpt>
      <trkpt lat="45.48867" lon="6.00103">
        <ele>285</ele>
        <time>2012-12-21T11:32:21.000Z</time>
      </trkpt>
      <trkpt lat="45.48872" lon="6.00101">
        <ele>286</ele>
        <time>2012-12-21T11:32:23.000Z</time>
      </trkpt>
      <trkpt lat="45.4888" lon="6.00096">
        <ele>286</ele>
        <time>2012-12-21T11:32:25.000Z</time>
      </trkpt>
      <trkpt lat="45.48885" lon="6.00091">
        <ele>286</ele>
        <time>2012-12-21T11:32:28.000Z</time>
      </trkpt>
      <trkpt lat="45.48918" lon="6.00068">
        <ele>287</ele>
        <time>2012-12-21T11:32:41.000Z</time>
      </trkpt>
      <trkpt lat="45.48926" lon="6.00066">
        <ele>287</ele>
        <time>2012-12-21T11:32:43.000Z</time>
      </trkpt>
      <trkpt lat="45.48935" lon="6.00065">
        <ele>287</ele>
        <time>2012-12-21T11:32:47.000Z</time>
      </trkpt>
      <trkpt lat="45.48943" lon="6.00066">
        <ele>287</ele>
        <time>2012-12-21T11:32:49.000Z</time>
      </trkpt>
      <trkpt lat="45.48949" lon="6.00067">
        <ele>288</ele>
        <time>2012-12-21T11:32:52.000Z</time>
      </trkpt>
      <trkpt lat="45.48968" lon="6.00068">
        <ele>289</ele>
        <time>2012-12-21T11:32:57.000Z</time>
      </trkpt>
      <trkpt lat="45.48973" lon="6.00066">
        <ele>289</ele>
        <time>2012-12-21T11:33:00.000Z</time>
      </trkpt>
      <trkpt lat="45.4898" lon="6.00066">
        <ele>290</ele>
        <time>2012-12-21T11:33:03.000Z</time>
      </trkpt>
      <trkpt lat="45.48987" lon="6.00066">
        <ele>290</ele>
        <time>2012-12-21T11:33:05.000Z</time>
      </trkpt>
      <trkpt lat="45.48999" lon="6.00066">
        <ele>291</ele>
        <time>2012-12-21T11:33:11.000Z</time>
      </trkpt>
      <trkpt lat="45.49002" lon="6.00064">
        <ele>291</ele>
        <time>2012-12-21T11:33:13.000Z</time>
      </trkpt>
      <trkpt lat="45.49007" lon="6.00061">
        <ele>291</ele>
        <time>2012-12-21T11:33:15.000Z</time>
      </trkpt>
      <trkpt lat="45.49012" lon="6.00057">
        <ele>292</ele>
        <time>2012-12-21T11:33:17.000Z</time>
      </trkpt>
      <trkpt lat="45.49031" lon="6.00044">
        <ele>293</ele>
        <time>2012-12-21T11:33:23.000Z</time>
      </trkpt>
      <trkpt lat="45.4904" lon="6.00036">
        <ele>293</ele>
        <time>2012-12-21T11:33:25.000Z</time>
      </trkpt>
      <trkpt lat="45.49039" lon="6.00027">
        <ele>294</ele>
        <time>2012-12-21T11:33:27.000Z</time>
      </trkpt>
      <trkpt lat="45.49036" lon="6.00017">
        <ele>294</ele>
        <time>2012-12-21T11:33:29.000Z</time>
      </trkpt>
      <trkpt lat="45.49028" lon="5.99979">
        <ele>293</ele>
        <time>2012-12-21T11:33:37.000Z</time>
      </trkpt>
      <trkpt lat="45.49022" lon="5.99955">
        <ele>292</ele>
        <time>2012-12-21T11:33:43.000Z</time>
      </trkpt>
      <trkpt lat="45.49014" lon="5.99916">
        <ele>291</ele>
        <time>2012-12-21T11:33:50.000Z</time>
      </trkpt>
      <trkpt lat="45.49004" lon="5.99877">
        <ele>290</ele>
        <time>2012-12-21T11:34:00.000Z</time>
      </trkpt>
      <trkpt lat="45.48987" lon="5.99817">
        <ele>290</ele>
        <time>2012-12-21T11:34:14.000Z</time>
      </trkpt>
      <trkpt lat="45.48982" lon="5.99806">
        <ele>290</ele>
        <time>2012-12-21T11:34:17.000Z</time>
      </trkpt>
      <trkpt lat="45.48978" lon="5.99799">
        <ele>289</ele>
        <time>2012-12-21T11:34:19.000Z</time>
      </trkpt>
      <trkpt lat="45.48971" lon="5.99778">
        <ele>289</ele>
        <time>2012-12-21T11:34:24.000Z</time>
      </trkpt>
      <trkpt lat="45.48964" lon="5.99749">
        <ele>290</ele>
        <time>2012-12-21T11:34:31.000Z</time>
      </trkpt>
      <trkpt lat="45.48951" lon="5.99683">
        <ele>290</ele>
        <time>2012-12-21T11:34:47.000Z</time>
      </trkpt>
      <trkpt lat="45.48952" lon="5.99677">
        <ele>290</ele>
        <time>2012-12-21T11:34:49.000Z</time>
      </trkpt>
      <trkpt lat="45.4895" lon="5.99665">
        <ele>290</ele>
        <time>2012-12-21T11:34:52.000Z</time>
      </trkpt>
      <trkpt lat="45.48943" lon="5.99655">
        <ele>290</ele>
        <time>2012-12-21T11:34:54.000Z</time>
      </trkpt>
      <trkpt lat="45.4894" lon="5.99649">
        <ele>290</ele>
        <time>2012-12-21T11:34:56.000Z</time>
      </trkpt>
      <trkpt lat="45.48937" lon="5.99642">
        <ele>290</ele>
        <time>2012-12-21T11:34:58.000Z</time>
      </trkpt>
      <trkpt lat="45.48934" lon="5.99629">
        <ele>290</ele>
        <time>2012-12-21T11:35:01.000Z</time>
      </trkpt>
      <trkpt lat="45.48919" lon="5.99566">
        <ele>290</ele>
        <time>2012-12-21T11:35:17.000Z</time>
      </trkpt>
      <trkpt lat="45.48905" lon="5.99501">
        <ele>290</ele>
        <time>2012-12-21T11:35:32.000Z</time>
      </trkpt>
      <trkpt lat="45.48903" lon="5.99478">
        <ele>290</ele>
        <time>2012-12-21T11:35:38.000Z</time>
      </trkpt>
      <trkpt lat="45.48891" lon="5.99414">
        <ele>290</ele>
        <time>2012-12-21T11:35:54.000Z</time>
      </trkpt>
      <trkpt lat="45.48887" lon="5.99403">
        <ele>290</ele>
        <time>2012-12-21T11:35:57.000Z</time>
      </trkpt>
      <trkpt lat="45.4888" lon="5.99359">
        <ele>290</ele>
        <time>2012-12-21T11:36:08.000Z</time>
      </trkpt>
      <trkpt lat="45.48888" lon="5.99352">
        <ele>290</ele>
        <time>2012-12-21T11:36:11.000Z</time>
      </trkpt>
      <trkpt lat="45.48896" lon="5.99347">
        <ele>290</ele>
        <time>2012-12-21T11:36:13.000Z</time>
      </trkpt>
      <trkpt lat="45.48906" lon="5.99343">
        <ele>291</ele>
        <time>2012-12-21T11:36:18.000Z</time>
      </trkpt>
      <trkpt lat="45.4892" lon="5.99338">
        <ele>291</ele>
        <time>2012-12-21T11:36:23.000Z</time>
      </trkpt>
      <trkpt lat="45.48927" lon="5.99337">
        <ele>292</ele>
        <time>2012-12-21T11:36:25.000Z</time>
      </trkpt>
      <trkpt lat="45.48932" lon="5.99334">
        <ele>292</ele>
        <time>2012-12-21T11:36:27.000Z</time>
      </trkpt>
      <trkpt lat="45.4894" lon="5.99331">
        <ele>292</ele>
        <time>2012-12-21T11:36:30.000Z</time>
      </trkpt>
      <trkpt lat="45.48947" lon="5.99329">
        <ele>293</ele>
        <time>2012-12-21T11:36:33.000Z</time>
      </trkpt>
      <trkpt lat="45.48954" lon="5.99324">
        <ele>293</ele>
        <time>2012-12-21T11:36:36.000Z</time>
      </trkpt>
      <trkpt lat="45.4896" lon="5.99316">
        <ele>293</ele>
        <time>2012-12-21T11:36:39.000Z</time>
      </trkpt>
      <trkpt lat="45.48964" lon="5.99311">
        <ele>294</ele>
        <time>2012-12-21T11:36:41.000Z</time>
      </trkpt>
      <trkpt lat="45.48989" lon="5.99286">
        <ele>295</ele>
        <time>2012-12-21T11:36:51.000Z</time>
      </trkpt>
      <trkpt lat="45.48995" lon="5.99278">
        <ele>295</ele>
        <time>2012-12-21T11:36:54.000Z</time>
      </trkpt>
      <trkpt lat="45.49002" lon="5.99273">
        <ele>295</ele>
        <time>2012-12-21T11:36:57.000Z</time>
      </trkpt>
      <trkpt lat="45.49025" lon="5.99254">
        <ele>295</ele>
        <time>2012-12-21T11:37:07.000Z</time>
      </trkpt>
      <trkpt lat="45.49028" lon="5.99244">
        <ele>296</ele>
        <time>2012-12-21T11:37:09.000Z</time>
      </trkpt>
      <trkpt lat="45.49032" lon="5.99237">
        <ele>296</ele>
        <time>2012-12-21T11:37:13.000Z</time>
      </trkpt>
      <trkpt lat="45.49038" lon="5.99234">
        <ele>296</ele>
        <time>2012-12-21T11:37:15.000Z</time>
      </trkpt>
      <trkpt lat="45.49046" lon="5.9923">
        <ele>296</ele>
        <time>2012-12-21T11:37:17.000Z</time>
      </trkpt>
      <trkpt lat="45.49051" lon="5.99229">
        <ele>296</ele>
        <time>2012-12-21T11:37:20.000Z</time>
      </trkpt>
      <trkpt lat="45.49059" lon="5.99226">
        <ele>296</ele>
        <time>2012-12-21T11:37:22.000Z</time>
      </trkpt>
      <trkpt lat="45.49066" lon="5.99223">
        <ele>297</ele>
        <time>2012-12-21T11:37:24.000Z</time>
      </trkpt>
      <trkpt lat="45.49072" lon="5.99218">
        <ele>297</ele>
        <time>2012-12-21T11:37:27.000Z</time>
      </trkpt>
      <trkpt lat="45.49094" lon="5.99199">
        <ele>298</ele>
        <time>2012-12-21T11:37:35.000Z</time>
      </trkpt>
      <trkpt lat="45.49097" lon="5.99194">
        <ele>298</ele>
        <time>2012-12-21T11:37:37.000Z</time>
      </trkpt>
      <trkpt lat="45.49097" lon="5.99179">
        <ele>298</ele>
        <time>2012-12-21T11:37:40.000Z</time>
      </trkpt>
      <trkpt lat="45.491" lon="5.99165">
        <ele>299</ele>
        <time>2012-12-21T11:37:43.000Z</time>
      </trkpt>
      <trkpt lat="45.49099" lon="5.99151">
        <ele>299</ele>
        <time>2012-12-21T11:37:46.000Z</time>
      </trkpt>
      <trkpt lat="45.49096" lon="5.99129">
        <ele>299</ele>
        <time>2012-12-21T11:37:51.000Z</time>
      </trkpt>
      <trkpt lat="45.49092" lon="5.99117">
        <ele>299</ele>
        <time>2012-12-21T11:37:54.000Z</time>
      </trkpt>
      <trkpt lat="45.4909" lon="5.99096">
        <ele>299</ele>
        <time>2012-12-21T11:37:59.000Z</time>
      </trkpt>
      <trkpt lat="45.4909" lon="5.99044">
        <ele>299</ele>
        <time>2012-12-21T11:38:11.000Z</time>
      </trkpt>
      <trkpt lat="45.49091" lon="5.99034">
        <ele>299</ele>
        <time>2012-12-21T11:38:13.000Z</time>
      </trkpt>
      <trkpt lat="45.49094" lon="5.9902">
        <ele>298</ele>
        <time>2012-12-21T11:38:15.000Z</time>
      </trkpt>
      <trkpt lat="45.49099" lon="5.98974">
        <ele>298</ele>
        <time>2012-12-21T11:38:26.000Z</time>
      </trkpt>
      <trkpt lat="45.49095" lon="5.98941">
        <ele>297</ele>
        <time>2012-12-21T11:38:33.000Z</time>
      </trkpt>
      <trkpt lat="45.49089" lon="5.98929">
        <ele>297</ele>
        <time>2012-12-21T11:38:36.000Z</time>
      </trkpt>
      <trkpt lat="45.49065" lon="5.98889">
        <ele>297</ele>
        <time>2012-12-21T11:38:47.000Z</time>
      </trkpt>
      <trkpt lat="45.49059" lon="5.98888">
        <ele>297</ele>
        <time>2012-12-21T11:38:49.000Z</time>
      </trkpt>
      <trkpt lat="45.49041" lon="5.98884">
        <ele>296</ele>
        <time>2012-12-21T11:38:54.000Z</time>
      </trkpt>
      <trkpt lat="45.49036" lon="5.98879">
        <ele>296</ele>
        <time>2012-12-21T11:38:56.000Z</time>
      </trkpt>
      <trkpt lat="45.49031" lon="5.98874">
        <ele>296</ele>
        <time>2012-12-21T11:38:58.000Z</time>
      </trkpt>
      <trkpt lat="45.49026" lon="5.98864">
        <ele>296</ele>
        <time>2012-12-21T11:39:01.000Z</time>
      </trkpt>
      <trkpt lat="45.49018" lon="5.98842">
        <ele>295</ele>
        <time>2012-12-21T11:39:07.000Z</time>
      </trkpt>
      <trkpt lat="45.49016" lon="5.98834">
        <ele>295</ele>
        <time>2012-12-21T11:39:09.000Z</time>
      </trkpt>
      <trkpt lat="45.49007" lon="5.98784">
        <ele>294</ele>
        <time>2012-12-21T11:39:19.000Z</time>
      </trkpt>
      <trkpt lat="45.49006" lon="5.98776">
        <ele>294</ele>
        <time>2012-12-21T11:39:21.000Z</time>
      </trkpt>
      <trkpt lat="45.49004" lon="5.98734">
        <ele>293</ele>
        <time>2012-12-21T11:39:30.000Z</time>
      </trkpt>
      <trkpt lat="45.49004" lon="5.98705">
        <ele>293</ele>
        <time>2012-12-21T11:39:38.000Z</time>
      </trkpt>
      <trkpt lat="45.49004" lon="5.98696">
        <ele>293</ele>
        <time>2012-12-21T11:39:40.000Z</time>
      </trkpt>
      <trkpt lat="45.48994" lon="5.98626">
        <ele>293</ele>
        <time>2012-12-21T11:39:55.000Z</time>
      </trkpt>
      <trkpt lat="45.48989" lon="5.98616">
        <ele>293</ele>
        <time>2012-12-21T11:39:58.000Z</time>
      </trkpt>
      <trkpt lat="45.48984" lon="5.98611">
        <ele>293</ele>
        <time>2012-12-21T11:40:00.000Z</time>
      </trkpt>
      <trkpt lat="45.48967" lon="5.98602">
        <ele>292</ele>
        <time>2012-12-21T11:40:05.000Z</time>
      </trkpt>
      <trkpt lat="45.48949" lon="5.98593">
        <ele>291</ele>
        <time>2012-12-21T11:40:09.000Z</time>
      </trkpt>
      <trkpt lat="45.48943" lon="5.98591">
        <ele>291</ele>
        <time>2012-12-21T11:40:12.000Z</time>
      </trkpt>
      <trkpt lat="45.48934" lon="5.98587">
        <ele>290</ele>
        <time>2012-12-21T11:40:14.000Z</time>
      </trkpt>
      <trkpt lat="45.4893" lon="5.98579">
        <ele>290</ele>
        <time>2012-12-21T11:40:17.000Z</time>
      </trkpt>
      <trkpt lat="45.4893" lon="5.98566">
        <ele>290</ele>
        <time>2012-12-21T11:40:21.000Z</time>
      </trkpt>
      <trkpt lat="45.48934" lon="5.98553">
        <ele>289</ele>
        <time>2012-12-21T11:40:23.000Z</time>
      </trkpt>
      <trkpt lat="45.48943" lon="5.98518">
        <ele>290</ele>
        <time>2012-12-21T11:40:31.000Z</time>
      </trkpt>
      <trkpt lat="45.48951" lon="5.98507">
        <ele>290</ele>
        <time>2012-12-21T11:40:36.000Z</time>
      </trkpt>
      <trkpt lat="45.48956" lon="5.98508">
        <ele>290</ele>
        <time>2012-12-21T11:40:39.000Z</time>
      </trkpt>
      <trkpt lat="45.48962" lon="5.98506">
        <ele>291</ele>
        <time>2012-12-21T11:40:41.000Z</time>
      </trkpt>
      <trkpt lat="45.48968" lon="5.98506">
        <ele>291</ele>
        <time>2012-12-21T11:40:45.000Z</time>
      </trkpt>
      <trkpt lat="45.48985" lon="5.98505">
        <ele>292</ele>
        <time>2012-12-21T11:40:52.000Z</time>
      </trkpt>
      <trkpt lat="45.48992" lon="5.98501">
        <ele>292</ele>
        <time>2012-12-21T11:40:55.000Z</time>
      </trkpt>
      <trkpt lat="45.48999" lon="5.98493">
        <ele>292</ele>
        <time>2012-12-21T11:40:57.000Z</time>
      </trkpt>
      <trkpt lat="45.49003" lon="5.98487">
        <ele>293</ele>
        <time>2012-12-21T11:40:59.000Z</time>
      </trkpt>
      <trkpt lat="45.49012" lon="5.98474">
        <ele>294</ele>
        <time>2012-12-21T11:41:05.000Z</time>
      </trkpt>
      <trkpt lat="45.49023" lon="5.98462">
        <ele>295</ele>
        <time>2012-12-21T11:41:11.000Z</time>
      </trkpt>
      <trkpt lat="45.49029" lon="5.98457">
        <ele>296</ele>
        <time>2012-12-21T11:41:14.000Z</time>
      </trkpt>
      <trkpt lat="45.49041" lon="5.98445">
        <ele>297</ele>
        <time>2012-12-21T11:41:19.000Z</time>
      </trkpt>
      <trkpt lat="45.49048" lon="5.98436">
        <ele>298</ele>
        <time>2012-12-21T11:41:22.000Z</time>
      </trkpt>
      <trkpt lat="45.49052" lon="5.98432">
        <ele>298</ele>
        <time>2012-12-21T11:41:24.000Z</time>
      </trkpt>
      <trkpt lat="45.4906" lon="5.98429">
        <ele>299</ele>
        <time>2012-12-21T11:41:27.000Z</time>
      </trkpt>
      <trkpt lat="45.49066" lon="5.98427">
        <ele>299</ele>
        <time>2012-12-21T11:41:29.000Z</time>
      </trkpt>
      <trkpt lat="45.49075" lon="5.98425">
        <ele>300</ele>
        <time>2012-12-21T11:41:32.000Z</time>
      </trkpt>
      <trkpt lat="45.4908" lon="5.9842">
        <ele>301</ele>
        <time>2012-12-21T11:41:35.000Z</time>
      </trkpt>
      <trkpt lat="45.49089" lon="5.98411">
        <ele>302</ele>
        <time>2012-12-21T11:41:40.000Z</time>
      </trkpt>
      <trkpt lat="45.49096" lon="5.98402">
        <ele>303</ele>
        <time>2012-12-21T11:41:45.000Z</time>
      </trkpt>
      <trkpt lat="45.491" lon="5.98399">
        <ele>303</ele>
        <time>2012-12-21T11:41:47.000Z</time>
      </trkpt>
      <trkpt lat="45.49104" lon="5.98397">
        <ele>304</ele>
        <time>2012-12-21T11:41:49.000Z</time>
      </trkpt>
      <trkpt lat="45.49109" lon="5.98391">
        <ele>304</ele>
        <time>2012-12-21T11:41:52.000Z</time>
      </trkpt>
      <trkpt lat="45.49113" lon="5.98383">
        <ele>304</ele>
        <time>2012-12-21T11:41:54.000Z</time>
      </trkpt>
      <trkpt lat="45.49117" lon="5.98378">
        <ele>305</ele>
        <time>2012-12-21T11:41:57.000Z</time>
      </trkpt>
      <trkpt lat="45.49124" lon="5.98368">
        <ele>306</ele>
        <time>2012-12-21T11:42:01.000Z</time>
      </trkpt>
      <trkpt lat="45.4913" lon="5.98362">
        <ele>306</ele>
        <time>2012-12-21T11:42:04.000Z</time>
      </trkpt>
      <trkpt lat="45.49138" lon="5.98359">
        <ele>307</ele>
        <time>2012-12-21T11:42:07.000Z</time>
      </trkpt>
      <trkpt lat="45.49144" lon="5.98359">
        <ele>307</ele>
        <time>2012-12-21T11:42:09.000Z</time>
      </trkpt>
      <trkpt lat="45.49149" lon="5.98361">
        <ele>308</ele>
        <time>2012-12-21T11:42:11.000Z</time>
      </trkpt>
      <trkpt lat="45.49158" lon="5.98363">
        <ele>308</ele>
        <time>2012-12-21T11:42:13.000Z</time>
      </trkpt>
      <trkpt lat="45.49163" lon="5.98359">
        <ele>308</ele>
        <time>2012-12-21T11:42:16.000Z</time>
      </trkpt>
      <trkpt lat="45.49178" lon="5.9835">
        <ele>309</ele>
        <time>2012-12-21T11:42:22.000Z</time>
      </trkpt>
      <trkpt lat="45.49186" lon="5.98348">
        <ele>309</ele>
        <time>2012-12-21T11:42:24.000Z</time>
      </trkpt>
      <trkpt lat="45.49191" lon="5.98348">
        <ele>310</ele>
        <time>2012-12-21T11:42:27.000Z</time>
      </trkpt>
      <trkpt lat="45.49197" lon="5.98348">
        <ele>310</ele>
        <time>2012-12-21T11:42:29.000Z</time>
      </trkpt>
      <trkpt lat="45.49202" lon="5.98352">
        <ele>311</ele>
        <time>2012-12-21T11:42:32.000Z</time>
      </trkpt>
      <trkpt lat="45.49208" lon="5.98354">
        <ele>311</ele>
        <time>2012-12-21T11:42:34.000Z</time>
      </trkpt>
      <trkpt lat="45.49213" lon="5.98355">
        <ele>311</ele>
        <time>2012-12-21T11:42:37.000Z</time>
      </trkpt>
      <trkpt lat="45.49221" lon="5.98358">
        <ele>312</ele>
        <time>2012-12-21T11:42:40.000Z</time>
      </trkpt>
      <trkpt lat="45.49228" lon="5.98359">
        <ele>312</ele>
        <time>2012-12-21T11:42:43.000Z</time>
      </trkpt>
      <trkpt lat="45.49246" lon="5.98359">
        <ele>313</ele>
        <time>2012-12-21T11:42:51.000Z</time>
      </trkpt>
      <trkpt lat="45.4925" lon="5.98356">
        <ele>313</ele>
        <time>2012-12-21T11:42:53.000Z</time>
      </trkpt>
      <trkpt lat="45.49253" lon="5.98348">
        <ele>313</ele>
        <time>2012-12-21T11:42:56.000Z</time>
      </trkpt>
      <trkpt lat="45.49254" lon="5.98339">
        <ele>314</ele>
        <time>2012-12-21T11:42:59.000Z</time>
      </trkpt>
      <trkpt lat="45.49255" lon="5.9833">
        <ele>315</ele>
        <time>2012-12-21T11:43:02.000Z</time>
      </trkpt>
      <trkpt lat="45.49255" lon="5.98324">
        <ele>316</ele>
        <time>2012-12-21T11:43:04.000Z</time>
      </trkpt>
      <trkpt lat="45.49258" lon="5.98316">
        <ele>317</ele>
        <time>2012-12-21T11:43:07.000Z</time>
      </trkpt>
      <trkpt lat="45.49263" lon="5.9831">
        <ele>318</ele>
        <time>2012-12-21T11:43:09.000Z</time>
      </trkpt>
      <trkpt lat="45.49266" lon="5.98308">
        <ele>319</ele>
        <time>2012-12-21T11:43:12.000Z</time>
      </trkpt>
      <trkpt lat="45.49271" lon="5.98303">
        <ele>320</ele>
        <time>2012-12-21T11:43:14.000Z</time>
      </trkpt>
      <trkpt lat="45.49274" lon="5.983">
        <ele>321</ele>
        <time>2012-12-21T11:43:17.000Z</time>
      </trkpt>
      <trkpt lat="45.4928" lon="5.98296">
        <ele>322</ele>
        <time>2012-12-21T11:43:20.000Z</time>
      </trkpt>
      <trkpt lat="45.49285" lon="5.98292">
        <ele>323</ele>
        <time>2012-12-21T11:43:23.000Z</time>
      </trkpt>
      <trkpt lat="45.49292" lon="5.98286">
        <ele>324</ele>
        <time>2012-12-21T11:43:28.000Z</time>
      </trkpt>
      <trkpt lat="45.49297" lon="5.98282">
        <ele>325</ele>
        <time>2012-12-21T11:43:30.000Z</time>
      </trkpt>
      <trkpt lat="45.493" lon="5.98281">
        <ele>326</ele>
        <time>2012-12-21T11:43:33.000Z</time>
      </trkpt>
      <trkpt lat="45.49308" lon="5.98278">
        <ele>327</ele>
        <time>2012-12-21T11:43:39.000Z</time>
      </trkpt>
      <trkpt lat="45.49309" lon="5.98275">
        <ele>328</ele>
        <time>2012-12-21T11:43:41.000Z</time>
      </trkpt>
      <trkpt lat="45.49307" lon="5.98267">
        <ele>328</ele>
        <time>2012-12-21T11:43:44.000Z</time>
      </trkpt>
      <trkpt lat="45.49303" lon="5.98258">
        <ele>329</ele>
        <time>2012-12-21T11:43:47.000Z</time>
      </trkpt>
      <trkpt lat="45.493" lon="5.98252">
        <ele>330</ele>
        <time>2012-12-21T11:43:49.000Z</time>
      </trkpt>
      <trkpt lat="45.49297" lon="5.98248">
        <ele>331</ele>
        <time>2012-12-21T11:43:51.000Z</time>
      </trkpt>
      <trkpt lat="45.49293" lon="5.98243">
        <ele>332</ele>
        <time>2012-12-21T11:43:54.000Z</time>
      </trkpt>
      <trkpt lat="45.49292" lon="5.9824">
        <ele>333</ele>
        <time>2012-12-21T11:43:56.000Z</time>
      </trkpt>
      <trkpt lat="45.49295" lon="5.98236">
        <ele>333</ele>
        <time>2012-12-21T11:43:59.000Z</time>
      </trkpt>
      <trkpt lat="45.49298" lon="5.98235">
        <ele>334</ele>
        <time>2012-12-21T11:44:01.000Z</time>
      </trkpt>
      <trkpt lat="45.49304" lon="5.98238">
        <ele>334</ele>
        <time>2012-12-21T11:44:04.000Z</time>
      </trkpt>
      <trkpt lat="45.4931" lon="5.98239">
        <ele>334</ele>
        <time>2012-12-21T11:44:07.000Z</time>
      </trkpt>
      <trkpt lat="45.49314" lon="5.98241">
        <ele>335</ele>
        <time>2012-12-21T11:44:09.000Z</time>
      </trkpt>
      <trkpt lat="45.49318" lon="5.98244">
        <ele>335</ele>
        <time>2012-12-21T11:44:11.000Z</time>
      </trkpt>
      <trkpt lat="45.49333" lon="5.98251">
        <ele>335</ele>
        <time>2012-12-21T11:44:19.000Z</time>
      </trkpt>
      <trkpt lat="45.49339" lon="5.98251">
        <ele>335</ele>
        <time>2012-12-21T11:44:21.000Z</time>
      </trkpt>
      <trkpt lat="45.49343" lon="5.9825">
        <ele>335</ele>
        <time>2012-12-21T11:44:24.000Z</time>
      </trkpt>
      <trkpt lat="45.49349" lon="5.98248">
        <ele>335</ele>
        <time>2012-12-21T11:44:27.000Z</time>
      </trkpt>
      <trkpt lat="45.49355" lon="5.98247">
        <ele>335</ele>
        <time>2012-12-21T11:44:29.000Z</time>
      </trkpt>
      <trkpt lat="45.4936" lon="5.98247">
        <ele>336</ele>
        <time>2012-12-21T11:44:32.000Z</time>
      </trkpt>
      <trkpt lat="45.49367" lon="5.98249">
        <ele>336</ele>
        <time>2012-12-21T11:44:35.000Z</time>
      </trkpt>
      <trkpt lat="45.49392" lon="5.98251">
        <ele>336</ele>
        <time>2012-12-21T11:44:44.000Z</time>
      </trkpt>
      <trkpt lat="45.49402" lon="5.98247">
        <ele>337</ele>
        <time>2012-12-21T11:44:47.000Z</time>
      </trkpt>
      <trkpt lat="45.4941" lon="5.98253">
        <ele>337</ele>
        <time>2012-12-21T11:44:49.000Z</time>
      </trkpt>
      <trkpt lat="45.49414" lon="5.98258">
        <ele>337</ele>
        <time>2012-12-21T11:44:52.000Z</time>
      </trkpt>
      <trkpt lat="45.49422" lon="5.98264">
        <ele>337</ele>
        <time>2012-12-21T11:44:55.000Z</time>
      </trkpt>
      <trkpt lat="45.49427" lon="5.98267">
        <ele>336</ele>
        <time>2012-12-21T11:44:57.000Z</time>
      </trkpt>
      <trkpt lat="45.49435" lon="5.98269">
        <ele>335</ele>
        <time>2012-12-21T11:45:00.000Z</time>
      </trkpt>
      <trkpt lat="45.49455" lon="5.98272">
        <ele>335</ele>
        <time>2012-12-21T11:45:08.000Z</time>
      </trkpt>
      <trkpt lat="45.49463" lon="5.98274">
        <ele>335</ele>
        <time>2012-12-21T11:45:11.000Z</time>
      </trkpt>
      <trkpt lat="45.49469" lon="5.98277">
        <ele>335</ele>
        <time>2012-12-21T11:45:13.000Z</time>
      </trkpt>
      <trkpt lat="45.49475" lon="5.9828">
        <ele>335</ele>
        <time>2012-12-21T11:45:16.000Z</time>
      </trkpt>
      <trkpt lat="45.49483" lon="5.98279">
        <ele>335</ele>
        <time>2012-12-21T11:45:19.000Z</time>
      </trkpt>
      <trkpt lat="45.49492" lon="5.98276">
        <ele>335</ele>
        <time>2012-12-21T11:45:21.000Z</time>
      </trkpt>
      <trkpt lat="45.49496" lon="5.98274">
        <ele>336</ele>
        <time>2012-12-21T11:45:24.000Z</time>
      </trkpt>
      <trkpt lat="45.49503" lon="5.98269">
        <ele>337</ele>
        <time>2012-12-21T11:45:27.000Z</time>
      </trkpt>
      <trkpt lat="45.49509" lon="5.98266">
        <ele>338</ele>
        <time>2012-12-21T11:45:30.000Z</time>
      </trkpt>
      <trkpt lat="45.49514" lon="5.98265">
        <ele>339</ele>
        <time>2012-12-21T11:45:32.000Z</time>
      </trkpt>
      <trkpt lat="45.49519" lon="5.98262">
        <ele>340</ele>
        <time>2012-12-21T11:45:35.000Z</time>
      </trkpt>
      <trkpt lat="45.49524" lon="5.98259">
        <ele>340</ele>
        <time>2012-12-21T11:45:38.000Z</time>
      </trkpt>
      <trkpt lat="45.49529" lon="5.98257">
        <ele>340</ele>
        <time>2012-12-21T11:45:40.000Z</time>
      </trkpt>
      <trkpt lat="45.49537" lon="5.98254">
        <ele>341</ele>
        <time>2012-12-21T11:45:43.000Z</time>
      </trkpt>
      <trkpt lat="45.49546" lon="5.98248">
        <ele>341</ele>
        <time>2012-12-21T11:45:47.000Z</time>
      </trkpt>
      <trkpt lat="45.4955" lon="5.98243">
        <ele>342</ele>
        <time>2012-12-21T11:45:49.000Z</time>
      </trkpt>
      <trkpt lat="45.49553" lon="5.98235">
        <ele>343</ele>
        <time>2012-12-21T11:45:52.000Z</time>
      </trkpt>
      <trkpt lat="45.49554" lon="5.98226">
        <ele>344</ele>
        <time>2012-12-21T11:45:55.000Z</time>
      </trkpt>
      <trkpt lat="45.49553" lon="5.98221">
        <ele>346</ele>
        <time>2012-12-21T11:45:57.000Z</time>
      </trkpt>
      <trkpt lat="45.49551" lon="5.98217">
        <ele>348</ele>
        <time>2012-12-21T11:45:59.000Z</time>
      </trkpt>
      <trkpt lat="45.49548" lon="5.98215">
        <ele>349</ele>
        <time>2012-12-21T11:46:01.000Z</time>
      </trkpt>
      <trkpt lat="45.49545" lon="5.98214">
        <ele>351</ele>
        <time>2012-12-21T11:46:04.000Z</time>
      </trkpt>
      <trkpt lat="45.49545" lon="5.98212">
        <ele>352</ele>
        <time>2012-12-21T11:46:07.000Z</time>
      </trkpt>
      <trkpt lat="45.49546" lon="5.98211">
        <ele>352</ele>
        <time>2012-12-21T11:46:09.000Z</time>
      </trkpt>
      <trkpt lat="45.49548" lon="5.98207">
        <ele>353</ele>
        <time>2012-12-21T11:46:12.000Z</time>
      </trkpt>
      <trkpt lat="45.49549" lon="5.982">
        <ele>354</ele>
        <time>2012-12-21T11:46:14.000Z</time>
      </trkpt>
      <trkpt lat="45.4955" lon="5.98195">
        <ele>355</ele>
        <time>2012-12-21T11:46:17.000Z</time>
      </trkpt>
      <trkpt lat="45.49552" lon="5.98191">
        <ele>356</ele>
        <time>2012-12-21T11:46:20.000Z</time>
      </trkpt>
      <trkpt lat="45.49553" lon="5.98186">
        <ele>358</ele>
        <time>2012-12-21T11:46:23.000Z</time>
      </trkpt>
      <trkpt lat="45.49553" lon="5.98184">
        <ele>359</ele>
        <time>2012-12-21T11:46:25.000Z</time>
      </trkpt>
      <trkpt lat="45.49554" lon="5.98183">
        <ele>360</ele>
        <time>2012-12-21T11:46:27.000Z</time>
      </trkpt>
      <trkpt lat="45.49554" lon="5.98182">
        <ele>361</ele>
        <time>2012-12-21T11:46:30.000Z</time>
      </trkpt>
      <trkpt lat="45.49551" lon="5.9818">
        <ele>361</ele>
        <time>2012-12-21T11:46:33.000Z</time>
      </trkpt>
      <trkpt lat="45.49548" lon="5.98178">
        <ele>362</ele>
        <time>2012-12-21T11:46:36.000Z</time>
      </trkpt>
      <trkpt lat="45.49544" lon="5.98177">
        <ele>363</ele>
        <time>2012-12-21T11:46:39.000Z</time>
      </trkpt>
      <trkpt lat="45.49545" lon="5.98176">
        <ele>363</ele>
        <time>2012-12-21T11:46:42.000Z</time>
      </trkpt>
      <trkpt lat="45.49547" lon="5.98175">
        <ele>364</ele>
        <time>2012-12-21T11:46:44.000Z</time>
      </trkpt>
      <trkpt lat="45.4955" lon="5.98171">
        <ele>364</ele>
        <time>2012-12-21T11:46:47.000Z</time>
      </trkpt>
      <trkpt lat="45.49553" lon="5.98165">
        <ele>365</ele>
        <time>2012-12-21T11:46:50.000Z</time>
      </trkpt>
      <trkpt lat="45.49553" lon="5.98158">
        <ele>366</ele>
        <time>2012-12-21T11:46:53.000Z</time>
      </trkpt>
      <trkpt lat="45.4955" lon="5.98156">
        <ele>367</ele>
        <time>2012-12-21T11:46:55.000Z</time>
      </trkpt>
      <trkpt lat="45.49546" lon="5.98155">
        <ele>368</ele>
        <time>2012-12-21T11:46:59.000Z</time>
      </trkpt>
      <trkpt lat="45.49544" lon="5.98154">
        <ele>369</ele>
        <time>2012-12-21T11:47:01.000Z</time>
      </trkpt>
      <trkpt lat="45.49545" lon="5.98152">
        <ele>369</ele>
        <time>2012-12-21T11:47:04.000Z</time>
      </trkpt>
      <trkpt lat="45.49546" lon="5.9815">
        <ele>370</ele>
        <time>2012-12-21T11:47:07.000Z</time>
      </trkpt>
      <trkpt lat="45.49552" lon="5.98142">
        <ele>371</ele>
        <time>2012-12-21T11:47:15.000Z</time>
      </trkpt>
      <trkpt lat="45.49553" lon="5.98141">
        <ele>371</ele>
        <time>2012-12-21T11:47:18.000Z</time>
      </trkpt>
      <trkpt lat="45.49551" lon="5.98141">
        <ele>372</ele>
        <time>2012-12-21T11:47:20.000Z</time>
      </trkpt>
      <trkpt lat="45.49548" lon="5.9814">
        <ele>372</ele>
        <time>2012-12-21T11:47:23.000Z</time>
      </trkpt>
      <trkpt lat="45.49544" lon="5.98138">
        <ele>372</ele>
        <time>2012-12-21T11:47:26.000Z</time>
      </trkpt>
      <trkpt lat="45.49543" lon="5.98135">
        <ele>373</ele>
        <time>2012-12-21T11:47:28.000Z</time>
      </trkpt>
      <trkpt lat="45.49543" lon="5.98134">
        <ele>373</ele>
        <time>2012-12-21T11:47:31.000Z</time>
      </trkpt>
      <trkpt lat="45.49546" lon="5.98131">
        <ele>373</ele>
        <time>2012-12-21T11:47:34.000Z</time>
      </trkpt>
      <trkpt lat="45.49549" lon="5.98128">
        <ele>374</ele>
        <time>2012-12-21T11:47:36.000Z</time>
      </trkpt>
      <trkpt lat="45.49553" lon="5.98123">
        <ele>375</ele>
        <time>2012-12-21T11:47:39.000Z</time>
      </trkpt>
      <trkpt lat="45.49558" lon="5.98116">
        <ele>376</ele>
        <time>2012-12-21T11:47:44.000Z</time>
      </trkpt>
      <trkpt lat="45.49557" lon="5.98115">
        <ele>376</ele>
        <time>2012-12-21T11:47:47.000Z</time>
      </trkpt>
      <trkpt lat="45.49554" lon="5.98115">
        <ele>377</ele>
        <time>2012-12-21T11:47:50.000Z</time>
      </trkpt>
      <trkpt lat="45.49551" lon="5.98117">
        <ele>377</ele>
        <time>2012-12-21T11:47:52.000Z</time>
      </trkpt>
      <trkpt lat="45.49543" lon="5.9812">
        <ele>377</ele>
        <time>2012-12-21T11:48:01.000Z</time>
      </trkpt>
      <trkpt lat="45.49544" lon="5.98117">
        <ele>377</ele>
        <time>2012-12-21T11:48:03.000Z</time>
      </trkpt>
      <trkpt lat="45.49551" lon="5.98105">
        <ele>378</ele>
        <time>2012-12-21T11:48:11.000Z</time>
      </trkpt>
      <trkpt lat="45.49553" lon="5.981">
        <ele>379</ele>
        <time>2012-12-21T11:48:14.000Z</time>
      </trkpt>
      <trkpt lat="45.49551" lon="5.98099">
        <ele>380</ele>
        <time>2012-12-21T11:48:16.000Z</time>
      </trkpt>
      <trkpt lat="45.49547" lon="5.98101">
        <ele>380</ele>
        <time>2012-12-21T11:48:18.000Z</time>
      </trkpt>
      <trkpt lat="45.49545" lon="5.98104">
        <ele>380</ele>
        <time>2012-12-21T11:48:20.000Z</time>
      </trkpt>
      <trkpt lat="45.49541" lon="5.98106">
        <ele>380</ele>
        <time>2012-12-21T11:48:23.000Z</time>
      </trkpt>
      <trkpt lat="45.49537" lon="5.98107">
        <ele>380</ele>
        <time>2012-12-21T11:48:25.000Z</time>
      </trkpt>
      <trkpt lat="45.49528" lon="5.98109">
        <ele>380</ele>
        <time>2012-12-21T11:48:29.000Z</time>
      </trkpt>
      <trkpt lat="45.49523" lon="5.98105">
        <ele>380</ele>
        <time>2012-12-21T11:48:33.000Z</time>
      </trkpt>
      <trkpt lat="45.49522" lon="5.981">
        <ele>380</ele>
        <time>2012-12-21T11:48:35.000Z</time>
      </trkpt>
      <trkpt lat="45.49522" lon="5.98095">
        <ele>381</ele>
        <time>2012-12-21T11:48:38.000Z</time>
      </trkpt>
      <trkpt lat="45.49522" lon="5.98091">
        <ele>382</ele>
        <time>2012-12-21T11:48:42.000Z</time>
      </trkpt>
      <trkpt lat="45.49527" lon="5.98086">
        <ele>383</ele>
        <time>2012-12-21T11:48:44.000Z</time>
      </trkpt>
      <trkpt lat="45.49541" lon="5.98072">
        <ele>384</ele>
        <time>2012-12-21T11:48:49.000Z</time>
      </trkpt>
      <trkpt lat="45.49559" lon="5.98056">
        <ele>385</ele>
        <time>2012-12-21T11:48:54.000Z</time>
      </trkpt>
      <trkpt lat="45.4957" lon="5.98049">
        <ele>386</ele>
        <time>2012-12-21T11:48:59.000Z</time>
      </trkpt>
      <trkpt lat="45.4958" lon="5.98041">
        <ele>387</ele>
        <time>2012-12-21T11:49:04.000Z</time>
      </trkpt>
      <trkpt lat="45.49586" lon="5.98038">
        <ele>387</ele>
        <time>2012-12-21T11:49:07.000Z</time>
      </trkpt>
      <trkpt lat="45.49592" lon="5.98034">
        <ele>387</ele>
        <time>2012-12-21T11:49:09.000Z</time>
      </trkpt>
      <trkpt lat="45.49596" lon="5.98034">
        <ele>387</ele>
        <time>2012-12-21T11:49:12.000Z</time>
      </trkpt>
      <trkpt lat="45.49602" lon="5.98032">
        <ele>387</ele>
        <time>2012-12-21T11:49:15.000Z</time>
      </trkpt>
      <trkpt lat="45.49606" lon="5.98028">
        <ele>387</ele>
        <time>2012-12-21T11:49:17.000Z</time>
      </trkpt>
      <trkpt lat="45.49611" lon="5.98021">
        <ele>387</ele>
        <time>2012-12-21T11:49:20.000Z</time>
      </trkpt>
      <trkpt lat="45.49615" lon="5.98008">
        <ele>387</ele>
        <time>2012-12-21T11:49:25.000Z</time>
      </trkpt>
      <trkpt lat="45.49614" lon="5.98003">
        <ele>387</ele>
        <time>2012-12-21T11:49:27.000Z</time>
      </trkpt>
      <trkpt lat="45.49608" lon="5.97997">
        <ele>388</ele>
        <time>2012-12-21T11:49:30.000Z</time>
      </trkpt>
      <trkpt lat="45.496" lon="5.97991">
        <ele>388</ele>
        <time>2012-12-21T11:49:32.000Z</time>
      </trkpt>
      <trkpt lat="45.49595" lon="5.97987">
        <ele>389</ele>
        <time>2012-12-21T11:49:35.000Z</time>
      </trkpt>
      <trkpt lat="45.49587" lon="5.97981">
        <ele>390</ele>
        <time>2012-12-21T11:49:37.000Z</time>
      </trkpt>
      <trkpt lat="45.49582" lon="5.97977">
        <ele>391</ele>
        <time>2012-12-21T11:49:40.000Z</time>
      </trkpt>
      <trkpt lat="45.49561" lon="5.97957">
        <ele>392</ele>
        <time>2012-12-21T11:49:48.000Z</time>
      </trkpt>
      <trkpt lat="45.49553" lon="5.97952">
        <ele>391</ele>
        <time>2012-12-21T11:49:51.000Z</time>
      </trkpt>
      <trkpt lat="45.49544" lon="5.97949">
        <ele>391</ele>
        <time>2012-12-21T11:49:53.000Z</time>
      </trkpt>
      <trkpt lat="45.49535" lon="5.97945">
        <ele>390</ele>
        <time>2012-12-21T11:49:56.000Z</time>
      </trkpt>
      <trkpt lat="45.49522" lon="5.97937">
        <ele>389</ele>
        <time>2012-12-21T11:50:01.000Z</time>
      </trkpt>
      <trkpt lat="45.49514" lon="5.97929">
        <ele>388</ele>
        <time>2012-12-21T11:50:04.000Z</time>
      </trkpt>
      <trkpt lat="45.495" lon="5.97915">
        <ele>387</ele>
        <time>2012-12-21T11:50:09.000Z</time>
      </trkpt>
      <trkpt lat="45.49495" lon="5.97909">
        <ele>387</ele>
        <time>2012-12-21T11:50:11.000Z</time>
      </trkpt>
      <trkpt lat="45.49488" lon="5.97898">
        <ele>386</ele>
        <time>2012-12-21T11:50:14.000Z</time>
      </trkpt>
      <trkpt lat="45.49474" lon="5.97883">
        <ele>385</ele>
        <time>2012-12-21T11:50:18.000Z</time>
      </trkpt>
      <trkpt lat="45.49462" lon="5.97869">
        <ele>384</ele>
        <time>2012-12-21T11:50:24.000Z</time>
      </trkpt>
      <trkpt lat="45.4945" lon="5.97855">
        <ele>383</ele>
        <time>2012-12-21T11:50:29.000Z</time>
      </trkpt>
      <trkpt lat="45.49439" lon="5.97855">
        <ele>383</ele>
        <time>2012-12-21T11:50:32.000Z</time>
      </trkpt>
      <trkpt lat="45.49426" lon="5.97861">
        <ele>382</ele>
        <time>2012-12-21T11:50:35.000Z</time>
      </trkpt>
      <trkpt lat="45.49417" lon="5.97866">
        <ele>381</ele>
        <time>2012-12-21T11:50:37.000Z</time>
      </trkpt>
      <trkpt lat="45.49407" lon="5.97871">
        <ele>379</ele>
        <time>2012-12-21T11:50:40.000Z</time>
      </trkpt>
      <trkpt lat="45.494" lon="5.97873">
        <ele>378</ele>
        <time>2012-12-21T11:50:42.000Z</time>
      </trkpt>
      <trkpt lat="45.4939" lon="5.97871">
        <ele>377</ele>
        <time>2012-12-21T11:50:45.000Z</time>
      </trkpt>
      <trkpt lat="45.4938" lon="5.9787">
        <ele>376</ele>
        <time>2012-12-21T11:50:48.000Z</time>
      </trkpt>
      <trkpt lat="45.49369" lon="5.97871">
        <ele>376</ele>
        <time>2012-12-21T11:50:51.000Z</time>
      </trkpt>
      <trkpt lat="45.49362" lon="5.97871">
        <ele>375</ele>
        <time>2012-12-21T11:50:53.000Z</time>
      </trkpt>
      <trkpt lat="45.49355" lon="5.9787">
        <ele>375</ele>
        <time>2012-12-21T11:50:56.000Z</time>
      </trkpt>
      <trkpt lat="45.4935" lon="5.97868">
        <ele>375</ele>
        <time>2012-12-21T11:50:58.000Z</time>
      </trkpt>
      <trkpt lat="45.49343" lon="5.97864">
        <ele>374</ele>
        <time>2012-12-21T11:51:01.000Z</time>
      </trkpt>
      <trkpt lat="45.49333" lon="5.97856">
        <ele>375</ele>
        <time>2012-12-21T11:51:05.000Z</time>
      </trkpt>
      <trkpt lat="45.4932" lon="5.97848">
        <ele>375</ele>
        <time>2012-12-21T11:51:11.000Z</time>
      </trkpt>
      <trkpt lat="45.4931" lon="5.97848">
        <ele>375</ele>
        <time>2012-12-21T11:51:13.000Z</time>
      </trkpt>
      <trkpt lat="45.49303" lon="5.97849">
        <ele>375</ele>
        <time>2012-12-21T11:51:16.000Z</time>
      </trkpt>
      <trkpt lat="45.49293" lon="5.97852">
        <ele>375</ele>
        <time>2012-12-21T11:51:19.000Z</time>
      </trkpt>
      <trkpt lat="45.49263" lon="5.97864">
        <ele>374</ele>
        <time>2012-12-21T11:51:28.000Z</time>
      </trkpt>
      <trkpt lat="45.49255" lon="5.97862">
        <ele>374</ele>
        <time>2012-12-21T11:51:31.000Z</time>
      </trkpt>
      <trkpt lat="45.49252" lon="5.97856">
        <ele>374</ele>
        <time>2012-12-21T11:51:33.000Z</time>
      </trkpt>
      <trkpt lat="45.49249" lon="5.97849">
        <ele>374</ele>
        <time>2012-12-21T11:51:35.000Z</time>
      </trkpt>
      <trkpt lat="45.49242" lon="5.97827">
        <ele>375</ele>
        <time>2012-12-21T11:51:42.000Z</time>
      </trkpt>
      <trkpt lat="45.49242" lon="5.97818">
        <ele>376</ele>
        <time>2012-12-21T11:51:44.000Z</time>
      </trkpt>
      <trkpt lat="45.49244" lon="5.97792">
        <ele>377</ele>
        <time>2012-12-21T11:51:51.000Z</time>
      </trkpt>
      <trkpt lat="45.49247" lon="5.97781">
        <ele>377</ele>
        <time>2012-12-21T11:51:54.000Z</time>
      </trkpt>
      <trkpt lat="45.49251" lon="5.9777">
        <ele>378</ele>
        <time>2012-12-21T11:51:57.000Z</time>
      </trkpt>
      <trkpt lat="45.49249" lon="5.97761">
        <ele>378</ele>
        <time>2012-12-21T11:51:59.000Z</time>
      </trkpt>
      <trkpt lat="45.49246" lon="5.97755">
        <ele>379</ele>
        <time>2012-12-21T11:52:01.000Z</time>
      </trkpt>
      <trkpt lat="45.49238" lon="5.97749">
        <ele>379</ele>
        <time>2012-12-21T11:52:04.000Z</time>
      </trkpt>
      <trkpt lat="45.49209" lon="5.97727">
        <ele>378</ele>
        <time>2012-12-21T11:52:15.000Z</time>
      </trkpt>
      <trkpt lat="45.49199" lon="5.9772">
        <ele>377</ele>
        <time>2012-12-21T11:52:17.000Z</time>
      </trkpt>
      <trkpt lat="45.49189" lon="5.97714">
        <ele>377</ele>
        <time>2012-12-21T11:52:21.000Z</time>
      </trkpt>
      <trkpt lat="45.49179" lon="5.9771">
        <ele>376</ele>
        <time>2012-12-21T11:52:23.000Z</time>
      </trkpt>
      <trkpt lat="45.49162" lon="5.97706">
        <ele>375</ele>
        <time>2012-12-21T11:52:29.000Z</time>
      </trkpt>
      <trkpt lat="45.49154" lon="5.97706">
        <ele>374</ele>
        <time>2012-12-21T11:52:31.000Z</time>
      </trkpt>
      <trkpt lat="45.49127" lon="5.97703">
        <ele>373</ele>
        <time>2012-12-21T11:52:39.000Z</time>
      </trkpt>
      <trkpt lat="45.49124" lon="5.97695">
        <ele>373</ele>
        <time>2012-12-21T11:52:42.000Z</time>
      </trkpt>
      <trkpt lat="45.49125" lon="5.97685">
        <ele>373</ele>
        <time>2012-12-21T11:52:44.000Z</time>
      </trkpt>
      <trkpt lat="45.49129" lon="5.97667">
        <ele>372</ele>
        <time>2012-12-21T11:52:47.000Z</time>
      </trkpt>
      <trkpt lat="45.49131" lon="5.97618">
        <ele>371</ele>
        <time>2012-12-21T11:52:58.000Z</time>
      </trkpt>
      <trkpt lat="45.49128" lon="5.9761">
        <ele>371</ele>
        <time>2012-12-21T11:53:00.000Z</time>
      </trkpt>
      <trkpt lat="45.4912" lon="5.97601">
        <ele>371</ele>
        <time>2012-12-21T11:53:02.000Z</time>
      </trkpt>
      <trkpt lat="45.49114" lon="5.97599">
        <ele>371</ele>
        <time>2012-12-21T11:53:05.000Z</time>
      </trkpt>
      <trkpt lat="45.49108" lon="5.97597">
        <ele>371</ele>
        <time>2012-12-21T11:53:07.000Z</time>
      </trkpt>
      <trkpt lat="45.49097" lon="5.97597">
        <ele>370</ele>
        <time>2012-12-21T11:53:10.000Z</time>
      </trkpt>
      <trkpt lat="45.4909" lon="5.97598">
        <ele>370</ele>
        <time>2012-12-21T11:53:12.000Z</time>
      </trkpt>
      <trkpt lat="45.49066" lon="5.97604">
        <ele>369</ele>
        <time>2012-12-21T11:53:18.000Z</time>
      </trkpt>
      <trkpt lat="45.49056" lon="5.9761">
        <ele>369</ele>
        <time>2012-12-21T11:53:21.000Z</time>
      </trkpt>
      <trkpt lat="45.49051" lon="5.97615">
        <ele>369</ele>
        <time>2012-12-21T11:53:23.000Z</time>
      </trkpt>
      <trkpt lat="45.49036" lon="5.97626">
        <ele>368</ele>
        <time>2012-12-21T11:53:28.000Z</time>
      </trkpt>
      <trkpt lat="45.49025" lon="5.97631">
        <ele>368</ele>
        <time>2012-12-21T11:53:31.000Z</time>
      </trkpt>
      <trkpt lat="45.49014" lon="5.97635">
        <ele>368</ele>
        <time>2012-12-21T11:53:34.000Z</time>
      </trkpt>
      <trkpt lat="45.49008" lon="5.97636">
        <ele>368</ele>
        <time>2012-12-21T11:53:36.000Z</time>
      </trkpt>
      <trkpt lat="45.48999" lon="5.97634">
        <ele>368</ele>
        <time>2012-12-21T11:53:39.000Z</time>
      </trkpt>
      <trkpt lat="45.48994" lon="5.97632">
        <ele>367</ele>
        <time>2012-12-21T11:53:41.000Z</time>
      </trkpt>
      <trkpt lat="45.48988" lon="5.97632">
        <ele>367</ele>
        <time>2012-12-21T11:53:43.000Z</time>
      </trkpt>
      <trkpt lat="45.48978" lon="5.97633">
        <ele>367</ele>
        <time>2012-12-21T11:53:46.000Z</time>
      </trkpt>
      <trkpt lat="45.48946" lon="5.97644">
        <ele>367</ele>
        <time>2012-12-21T11:53:56.000Z</time>
      </trkpt>
      <trkpt lat="45.48941" lon="5.97647">
        <ele>366</ele>
        <time>2012-12-21T11:53:58.000Z</time>
      </trkpt>
      <trkpt lat="45.48906" lon="5.97662">
        <ele>366</ele>
        <time>2012-12-21T11:54:10.000Z</time>
      </trkpt>
      <trkpt lat="45.48899" lon="5.97663">
        <ele>366</ele>
        <time>2012-12-21T11:54:12.000Z</time>
      </trkpt>
      <trkpt lat="45.48889" lon="5.97663">
        <ele>366</ele>
        <time>2012-12-21T11:54:15.000Z</time>
      </trkpt>
      <trkpt lat="45.4886" lon="5.9766">
        <ele>366</ele>
        <time>2012-12-21T11:54:24.000Z</time>
      </trkpt>
      <trkpt lat="45.48839" lon="5.97661">
        <ele>365</ele>
        <time>2012-12-21T11:54:29.000Z</time>
      </trkpt>
      <trkpt lat="45.48833" lon="5.97665">
        <ele>365</ele>
        <time>2012-12-21T11:54:32.000Z</time>
      </trkpt>
      <trkpt lat="45.48824" lon="5.97672">
        <ele>365</ele>
        <time>2012-12-21T11:54:35.000Z</time>
      </trkpt>
      <trkpt lat="45.48817" lon="5.97683">
        <ele>365</ele>
        <time>2012-12-21T11:54:38.000Z</time>
      </trkpt>
      <trkpt lat="45.48813" lon="5.9769">
        <ele>366</ele>
        <time>2012-12-21T11:54:40.000Z</time>
      </trkpt>
      <trkpt lat="45.48809" lon="5.97701">
        <ele>366</ele>
        <time>2012-12-21T11:54:43.000Z</time>
      </trkpt>
      <trkpt lat="45.48804" lon="5.97716">
        <ele>367</ele>
        <time>2012-12-21T11:54:47.000Z</time>
      </trkpt>
      <trkpt lat="45.48799" lon="5.97723">
        <ele>367</ele>
        <time>2012-12-21T11:54:50.000Z</time>
      </trkpt>
      <trkpt lat="45.48795" lon="5.97723">
        <ele>367</ele>
        <time>2012-12-21T11:54:52.000Z</time>
      </trkpt>
      <trkpt lat="45.48789" lon="5.97711">
        <ele>368</ele>
        <time>2012-12-21T11:54:55.000Z</time>
      </trkpt>
      <trkpt lat="45.48779" lon="5.97681">
        <ele>368</ele>
        <time>2012-12-21T11:55:02.000Z</time>
      </trkpt>
      <trkpt lat="45.48777" lon="5.97673">
        <ele>368</ele>
        <time>2012-12-21T11:55:04.000Z</time>
      </trkpt>
      <trkpt lat="45.48763" lon="5.97639">
        <ele>369</ele>
        <time>2012-12-21T11:55:13.000Z</time>
      </trkpt>
      <trkpt lat="45.48761" lon="5.97622">
        <ele>370</ele>
        <time>2012-12-21T11:55:19.000Z</time>
      </trkpt>
      <trkpt lat="45.48762" lon="5.97612">
        <ele>370</ele>
        <time>2012-12-21T11:55:21.000Z</time>
      </trkpt>
      <trkpt lat="45.48766" lon="5.97599">
        <ele>371</ele>
        <time>2012-12-21T11:55:27.000Z</time>
      </trkpt>
      <trkpt lat="45.48769" lon="5.97575">
        <ele>372</ele>
        <time>2012-12-21T11:55:34.000Z</time>
      </trkpt>
      <trkpt lat="45.48773" lon="5.9755">
        <ele>373</ele>
        <time>2012-12-21T11:55:41.000Z</time>
      </trkpt>
      <trkpt lat="45.48775" lon="5.97531">
        <ele>374</ele>
        <time>2012-12-21T11:55:46.000Z</time>
      </trkpt>
      <trkpt lat="45.48775" lon="5.97524">
        <ele>375</ele>
        <time>2012-12-21T11:55:48.000Z</time>
      </trkpt>
      <trkpt lat="45.48773" lon="5.97505">
        <ele>376</ele>
        <time>2012-12-21T11:55:54.000Z</time>
      </trkpt>
      <trkpt lat="45.48773" lon="5.97498">
        <ele>377</ele>
        <time>2012-12-21T11:55:56.000Z</time>
      </trkpt>
      <trkpt lat="45.48771" lon="5.97482">
        <ele>378</ele>
        <time>2012-12-21T11:56:01.000Z</time>
      </trkpt>
      <trkpt lat="45.4877" lon="5.97471">
        <ele>379</ele>
        <time>2012-12-21T11:56:04.000Z</time>
      </trkpt>
      <trkpt lat="45.48768" lon="5.97462">
        <ele>379</ele>
        <time>2012-12-21T11:56:07.000Z</time>
      </trkpt>
      <trkpt lat="45.48765" lon="5.97455">
        <ele>380</ele>
        <time>2012-12-21T11:56:10.000Z</time>
      </trkpt>
      <trkpt lat="45.48762" lon="5.97449">
        <ele>381</ele>
        <time>2012-12-21T11:56:13.000Z</time>
      </trkpt>
      <trkpt lat="45.48758" lon="5.97445">
        <ele>382</ele>
        <time>2012-12-21T11:56:16.000Z</time>
      </trkpt>
      <trkpt lat="45.48755" lon="5.97441">
        <ele>383</ele>
        <time>2012-12-21T11:56:19.000Z</time>
      </trkpt>
      <trkpt lat="45.48747" lon="5.97429">
        <ele>384</ele>
        <time>2012-12-21T11:56:24.000Z</time>
      </trkpt>
      <trkpt lat="45.48742" lon="5.97422">
        <ele>385</ele>
        <time>2012-12-21T11:56:27.000Z</time>
      </trkpt>
      <trkpt lat="45.48731" lon="5.97409">
        <ele>386</ele>
        <time>2012-12-21T11:56:32.000Z</time>
      </trkpt>
      <trkpt lat="45.48726" lon="5.97409">
        <ele>387</ele>
        <time>2012-12-21T11:56:35.000Z</time>
      </trkpt>
      <trkpt lat="45.48706" lon="5.9741">
        <ele>388</ele>
        <time>2012-12-21T11:56:39.000Z</time>
      </trkpt>
      <trkpt lat="45.487" lon="5.97408">
        <ele>388</ele>
        <time>2012-12-21T11:56:42.000Z</time>
      </trkpt>
      <trkpt lat="45.48695" lon="5.97405">
        <ele>389</ele>
        <time>2012-12-21T11:56:45.000Z</time>
      </trkpt>
      <trkpt lat="45.48693" lon="5.97401">
        <ele>389</ele>
        <time>2012-12-21T11:56:47.000Z</time>
      </trkpt>
      <trkpt lat="45.48692" lon="5.97396">
        <ele>390</ele>
        <time>2012-12-21T11:56:49.000Z</time>
      </trkpt>
      <trkpt lat="45.48688" lon="5.97388">
        <ele>391</ele>
        <time>2012-12-21T11:56:52.000Z</time>
      </trkpt>
      <trkpt lat="45.48684" lon="5.97382">
        <ele>392</ele>
        <time>2012-12-21T11:56:55.000Z</time>
      </trkpt>
      <trkpt lat="45.48679" lon="5.97377">
        <ele>393</ele>
        <time>2012-12-21T11:56:58.000Z</time>
      </trkpt>
      <trkpt lat="45.48676" lon="5.97374">
        <ele>394</ele>
        <time>2012-12-21T11:57:00.000Z</time>
      </trkpt>
      <trkpt lat="45.48669" lon="5.9737">
        <ele>395</ele>
        <time>2012-12-21T11:57:03.000Z</time>
      </trkpt>
      <trkpt lat="45.48665" lon="5.97368">
        <ele>395</ele>
        <time>2012-12-21T11:57:05.000Z</time>
      </trkpt>
      <trkpt lat="45.4866" lon="5.97368">
        <ele>396</ele>
        <time>2012-12-21T11:57:07.000Z</time>
      </trkpt>
      <trkpt lat="45.48652" lon="5.9737">
        <ele>396</ele>
        <time>2012-12-21T11:57:09.000Z</time>
      </trkpt>
      <trkpt lat="45.48647" lon="5.97371">
        <ele>397</ele>
        <time>2012-12-21T11:57:12.000Z</time>
      </trkpt>
      <trkpt lat="45.4864" lon="5.97373">
        <ele>397</ele>
        <time>2012-12-21T11:57:15.000Z</time>
      </trkpt>
      <trkpt lat="45.48635" lon="5.97376">
        <ele>397</ele>
        <time>2012-12-21T11:57:17.000Z</time>
      </trkpt>
      <trkpt lat="45.48629" lon="5.97382">
        <ele>397</ele>
        <time>2012-12-21T11:57:20.000Z</time>
      </trkpt>
      <trkpt lat="45.48625" lon="5.97387">
        <ele>397</ele>
        <time>2012-12-21T11:57:23.000Z</time>
      </trkpt>
      <trkpt lat="45.48612" lon="5.97399">
        <ele>397</ele>
        <time>2012-12-21T11:57:31.000Z</time>
      </trkpt>
      <trkpt lat="45.48606" lon="5.97401">
        <ele>397</ele>
        <time>2012-12-21T11:57:34.000Z</time>
      </trkpt>
      <trkpt lat="45.48602" lon="5.97401">
        <ele>397</ele>
        <time>2012-12-21T11:57:36.000Z</time>
      </trkpt>
      <trkpt lat="45.48596" lon="5.974">
        <ele>397</ele>
        <time>2012-12-21T11:57:39.000Z</time>
      </trkpt>
      <trkpt lat="45.4859" lon="5.97396">
        <ele>398</ele>
        <time>2012-12-21T11:57:42.000Z</time>
      </trkpt>
      <trkpt lat="45.48587" lon="5.97393">
        <ele>398</ele>
        <time>2012-12-21T11:57:44.000Z</time>
      </trkpt>
      <trkpt lat="45.48584" lon="5.9739">
        <ele>399</ele>
        <time>2012-12-21T11:57:46.000Z</time>
      </trkpt>
      <trkpt lat="45.48571" lon="5.97382">
        <ele>400</ele>
        <time>2012-12-21T11:57:51.000Z</time>
      </trkpt>
      <trkpt lat="45.48563" lon="5.97379">
        <ele>401</ele>
        <time>2012-12-21T11:57:53.000Z</time>
      </trkpt>
      <trkpt lat="45.48559" lon="5.97381">
        <ele>401</ele>
        <time>2012-12-21T11:57:56.000Z</time>
      </trkpt>
      <trkpt lat="45.48558" lon="5.97383">
        <ele>402</ele>
        <time>2012-12-21T11:57:58.000Z</time>
      </trkpt>
      <trkpt lat="45.48556" lon="5.97386">
        <ele>402</ele>
        <time>2012-12-21T11:58:00.000Z</time>
      </trkpt>
      <trkpt lat="45.48552" lon="5.97393">
        <ele>403</ele>
        <time>2012-12-21T11:58:02.000Z</time>
      </trkpt>
      <trkpt lat="45.48549" lon="5.97396">
        <ele>403</ele>
        <time>2012-12-21T11:58:05.000Z</time>
      </trkpt>
      <trkpt lat="45.48546" lon="5.97398">
        <ele>403</ele>
        <time>2012-12-21T11:58:07.000Z</time>
      </trkpt>
      <trkpt lat="45.4854" lon="5.97401">
        <ele>403</ele>
        <time>2012-12-21T11:58:11.000Z</time>
      </trkpt>
      <trkpt lat="45.48532" lon="5.97402">
        <ele>403</ele>
        <time>2012-12-21T11:58:14.000Z</time>
      </trkpt>
      <trkpt lat="45.48528" lon="5.97404">
        <ele>404</ele>
        <time>2012-12-21T11:58:16.000Z</time>
      </trkpt>
      <trkpt lat="45.48515" lon="5.97408">
        <ele>405</ele>
        <time>2012-12-21T11:58:23.000Z</time>
      </trkpt>
      <trkpt lat="45.48508" lon="5.97404">
        <ele>405</ele>
        <time>2012-12-21T11:58:26.000Z</time>
      </trkpt>
      <trkpt lat="45.48502" lon="5.974">
        <ele>406</ele>
        <time>2012-12-21T11:58:29.000Z</time>
      </trkpt>
      <trkpt lat="45.48495" lon="5.97397">
        <ele>407</ele>
        <time>2012-12-21T11:58:32.000Z</time>
      </trkpt>
      <trkpt lat="45.48492" lon="5.97396">
        <ele>407</ele>
        <time>2012-12-21T11:58:34.000Z</time>
      </trkpt>
      <trkpt lat="45.48487" lon="5.97396">
        <ele>408</ele>
        <time>2012-12-21T11:58:37.000Z</time>
      </trkpt>
      <trkpt lat="45.48481" lon="5.97401">
        <ele>408</ele>
        <time>2012-12-21T11:58:40.000Z</time>
      </trkpt>
      <trkpt lat="45.48476" lon="5.97405">
        <ele>409</ele>
        <time>2012-12-21T11:58:43.000Z</time>
      </trkpt>
      <trkpt lat="45.48467" lon="5.97412">
        <ele>410</ele>
        <time>2012-12-21T11:58:47.000Z</time>
      </trkpt>
      <trkpt lat="45.48458" lon="5.97421">
        <ele>411</ele>
        <time>2012-12-21T11:58:52.000Z</time>
      </trkpt>
      <trkpt lat="45.48451" lon="5.97425">
        <ele>411</ele>
        <time>2012-12-21T11:58:55.000Z</time>
      </trkpt>
      <trkpt lat="45.48443" lon="5.97428">
        <ele>411</ele>
        <time>2012-12-21T11:58:57.000Z</time>
      </trkpt>
      <trkpt lat="45.48437" lon="5.97429">
        <ele>412</ele>
        <time>2012-12-21T11:59:00.000Z</time>
      </trkpt>
      <trkpt lat="45.4842" lon="5.97432">
        <ele>413</ele>
        <time>2012-12-21T11:59:08.000Z</time>
      </trkpt>
      <trkpt lat="45.48413" lon="5.97432">
        <ele>413</ele>
        <time>2012-12-21T11:59:11.000Z</time>
      </trkpt>
      <trkpt lat="45.48409" lon="5.97432">
        <ele>414</ele>
        <time>2012-12-21T11:59:13.000Z</time>
      </trkpt>
      <trkpt lat="45.48392" lon="5.97432">
        <ele>415</ele>
        <time>2012-12-21T11:59:20.000Z</time>
      </trkpt>
      <trkpt lat="45.48374" lon="5.97437">
        <ele>415</ele>
        <time>2012-12-21T11:59:25.000Z</time>
      </trkpt>
      <trkpt lat="45.48367" lon="5.97441">
        <ele>415</ele>
        <time>2012-12-21T11:59:28.000Z</time>
      </trkpt>
      <trkpt lat="45.48357" lon="5.97445">
        <ele>415</ele>
        <time>2012-12-21T11:59:31.000Z</time>
      </trkpt>
      <trkpt lat="45.48351" lon="5.97448">
        <ele>416</ele>
        <time>2012-12-21T11:59:33.000Z</time>
      </trkpt>
      <trkpt lat="45.48343" lon="5.97458">
        <ele>416</ele>
        <time>2012-12-21T11:59:36.000Z</time>
      </trkpt>
      <trkpt lat="45.48322" lon="5.97476">
        <ele>416</ele>
        <time>2012-12-21T11:59:44.000Z</time>
      </trkpt>
      <trkpt lat="45.48314" lon="5.97481">
        <ele>417</ele>
        <time>2012-12-21T11:59:47.000Z</time>
      </trkpt>
      <trkpt lat="45.483" lon="5.97488">
        <ele>418</ele>
        <time>2012-12-21T11:59:52.000Z</time>
      </trkpt>
      <trkpt lat="45.48292" lon="5.9749">
        <ele>419</ele>
        <time>2012-12-21T11:59:54.000Z</time>
      </trkpt>
      <trkpt lat="45.48286" lon="5.97493">
        <ele>420</ele>
        <time>2012-12-21T11:59:57.000Z</time>
      </trkpt>
      <trkpt lat="45.48283" lon="5.97497">
        <ele>420</ele>
        <time>2012-12-21T11:59:59.000Z</time>
      </trkpt>
      <trkpt lat="45.4828" lon="5.97503">
        <ele>421</ele>
        <time>2012-12-21T12:00:01.000Z</time>
      </trkpt>
      <trkpt lat="45.48277" lon="5.97508">
        <ele>422</ele>
        <time>2012-12-21T12:00:03.000Z</time>
      </trkpt>
      <trkpt lat="45.4827" lon="5.9752">
        <ele>423</ele>
        <time>2012-12-21T12:00:09.000Z</time>
      </trkpt>
      <trkpt lat="45.48265" lon="5.97522">
        <ele>423</ele>
        <time>2012-12-21T12:00:11.000Z</time>
      </trkpt>
      <trkpt lat="45.48262" lon="5.97523">
        <ele>424</ele>
        <time>2012-12-21T12:00:13.000Z</time>
      </trkpt>
      <trkpt lat="45.48259" lon="5.97526">
        <ele>424</ele>
        <time>2012-12-21T12:00:16.000Z</time>
      </trkpt>
      <trkpt lat="45.48255" lon="5.97531">
        <ele>425</ele>
        <time>2012-12-21T12:00:19.000Z</time>
      </trkpt>
      <trkpt lat="45.48252" lon="5.97536">
        <ele>426</ele>
        <time>2012-12-21T12:00:22.000Z</time>
      </trkpt>
      <trkpt lat="45.48249" lon="5.9754">
        <ele>426</ele>
        <time>2012-12-21T12:00:24.000Z</time>
      </trkpt>
      <trkpt lat="45.48246" lon="5.97543">
        <ele>426</ele>
        <time>2012-12-21T12:00:26.000Z</time>
      </trkpt>
      <trkpt lat="45.4824" lon="5.97544">
        <ele>427</ele>
        <time>2012-12-21T12:00:29.000Z</time>
      </trkpt>
      <trkpt lat="45.48233" lon="5.97547">
        <ele>427</ele>
        <time>2012-12-21T12:00:32.000Z</time>
      </trkpt>
      <trkpt lat="45.4823" lon="5.97551">
        <ele>427</ele>
        <time>2012-12-21T12:00:34.000Z</time>
      </trkpt>
      <trkpt lat="45.48223" lon="5.97558">
        <ele>426</ele>
        <time>2012-12-21T12:00:37.000Z</time>
      </trkpt>
      <trkpt lat="45.48214" lon="5.97565">
        <ele>426</ele>
        <time>2012-12-21T12:00:40.000Z</time>
      </trkpt>
      <trkpt lat="45.48204" lon="5.97569">
        <ele>426</ele>
        <time>2012-12-21T12:00:43.000Z</time>
      </trkpt>
      <trkpt lat="45.48193" lon="5.97571">
        <ele>425</ele>
        <time>2012-12-21T12:00:47.000Z</time>
      </trkpt>
      <trkpt lat="45.48186" lon="5.97568">
        <ele>425</ele>
        <time>2012-12-21T12:00:49.000Z</time>
      </trkpt>
      <trkpt lat="45.48174" lon="5.97561">
        <ele>424</ele>
        <time>2012-12-21T12:00:52.000Z</time>
      </trkpt>
      <trkpt lat="45.48167" lon="5.97559">
        <ele>424</ele>
        <time>2012-12-21T12:00:54.000Z</time>
      </trkpt>
      <trkpt lat="45.48158" lon="5.97553">
        <ele>424</ele>
        <time>2012-12-21T12:00:57.000Z</time>
      </trkpt>
      <trkpt lat="45.48155" lon="5.97547">
        <ele>423</ele>
        <time>2012-12-21T12:00:59.000Z</time>
      </trkpt>
      <trkpt lat="45.48144" lon="5.97529">
        <ele>423</ele>
        <time>2012-12-21T12:01:04.000Z</time>
      </trkpt>
      <trkpt lat="45.48136" lon="5.97519">
        <ele>423</ele>
        <time>2012-12-21T12:01:06.000Z</time>
      </trkpt>
      <trkpt lat="45.48131" lon="5.97512">
        <ele>424</ele>
        <time>2012-12-21T12:01:09.000Z</time>
      </trkpt>
      <trkpt lat="45.4812" lon="5.97491">
        <ele>425</ele>
        <time>2012-12-21T12:01:16.000Z</time>
      </trkpt>
      <trkpt lat="45.48116" lon="5.97479">
        <ele>425</ele>
        <time>2012-12-21T12:01:19.000Z</time>
      </trkpt>
      <trkpt lat="45.48116" lon="5.97469">
        <ele>426</ele>
        <time>2012-12-21T12:01:21.000Z</time>
      </trkpt>
      <trkpt lat="45.48116" lon="5.97443">
        <ele>427</ele>
        <time>2012-12-21T12:01:27.000Z</time>
      </trkpt>
      <trkpt lat="45.48118" lon="5.97432">
        <ele>428</ele>
        <time>2012-12-21T12:01:29.000Z</time>
      </trkpt>
      <trkpt lat="45.48119" lon="5.97421">
        <ele>429</ele>
        <time>2012-12-21T12:01:34.000Z</time>
      </trkpt>
      <trkpt lat="45.4812" lon="5.97395">
        <ele>430</ele>
        <time>2012-12-21T12:01:42.000Z</time>
      </trkpt>
      <trkpt lat="45.48116" lon="5.97385">
        <ele>430</ele>
        <time>2012-12-21T12:01:45.000Z</time>
      </trkpt>
      <trkpt lat="45.4811" lon="5.97378">
        <ele>431</ele>
        <time>2012-12-21T12:01:48.000Z</time>
      </trkpt>
      <trkpt lat="45.48106" lon="5.97371">
        <ele>432</ele>
        <time>2012-12-21T12:01:50.000Z</time>
      </trkpt>
      <trkpt lat="45.48103" lon="5.97364">
        <ele>433</ele>
        <time>2012-12-21T12:01:53.000Z</time>
      </trkpt>
      <trkpt lat="45.481" lon="5.97361">
        <ele>433</ele>
        <time>2012-12-21T12:01:56.000Z</time>
      </trkpt>
      <trkpt lat="45.48095" lon="5.97357">
        <ele>434</ele>
        <time>2012-12-21T12:01:58.000Z</time>
      </trkpt>
      <trkpt lat="45.48093" lon="5.97354">
        <ele>435</ele>
        <time>2012-12-21T12:02:01.000Z</time>
      </trkpt>
      <trkpt lat="45.48087" lon="5.97349">
        <ele>436</ele>
        <time>2012-12-21T12:02:06.000Z</time>
      </trkpt>
      <trkpt lat="45.48082" lon="5.97347">
        <ele>436</ele>
        <time>2012-12-21T12:02:09.000Z</time>
      </trkpt>
      <trkpt lat="45.48078" lon="5.97346">
        <ele>437</ele>
        <time>2012-12-21T12:02:11.000Z</time>
      </trkpt>
      <trkpt lat="45.48074" lon="5.97344">
        <ele>437</ele>
        <time>2012-12-21T12:02:13.000Z</time>
      </trkpt>
      <trkpt lat="45.48071" lon="5.97341">
        <ele>438</ele>
        <time>2012-12-21T12:02:15.000Z</time>
      </trkpt>
      <trkpt lat="45.48069" lon="5.97338">
        <ele>438</ele>
        <time>2012-12-21T12:02:17.000Z</time>
      </trkpt>
      <trkpt lat="45.48069" lon="5.9733">
        <ele>438</ele>
        <time>2012-12-21T12:02:20.000Z</time>
      </trkpt>
      <trkpt lat="45.48071" lon="5.9732">
        <ele>439</ele>
        <time>2012-12-21T12:02:23.000Z</time>
      </trkpt>
      <trkpt lat="45.48076" lon="5.97298">
        <ele>440</ele>
        <time>2012-12-21T12:02:28.000Z</time>
      </trkpt>
      <trkpt lat="45.48076" lon="5.97292">
        <ele>440</ele>
        <time>2012-12-21T12:02:31.000Z</time>
      </trkpt>
      <trkpt lat="45.48075" lon="5.97287">
        <ele>441</ele>
        <time>2012-12-21T12:02:33.000Z</time>
      </trkpt>
      <trkpt lat="45.48071" lon="5.97271">
        <ele>442</ele>
        <time>2012-12-21T12:02:38.000Z</time>
      </trkpt>
      <trkpt lat="45.48068" lon="5.97263">
        <ele>442</ele>
        <time>2012-12-21T12:02:41.000Z</time>
      </trkpt>
      <trkpt lat="45.48065" lon="5.97254">
        <ele>443</ele>
        <time>2012-12-21T12:02:44.000Z</time>
      </trkpt>
      <trkpt lat="45.48061" lon="5.97248">
        <ele>444</ele>
        <time>2012-12-21T12:02:47.000Z</time>
      </trkpt>
      <trkpt lat="45.48055" lon="5.97243">
        <ele>444</ele>
        <time>2012-12-21T12:02:50.000Z</time>
      </trkpt>
      <trkpt lat="45.48049" lon="5.97237">
        <ele>445</ele>
        <time>2012-12-21T12:02:53.000Z</time>
      </trkpt>
      <trkpt lat="45.48044" lon="5.97233">
        <ele>446</ele>
        <time>2012-12-21T12:02:55.000Z</time>
      </trkpt>
      <trkpt lat="45.4804" lon="5.9723">
        <ele>446</ele>
        <time>2012-12-21T12:02:57.000Z</time>
      </trkpt>
      <trkpt lat="45.48032" lon="5.97226">
        <ele>447</ele>
        <time>2012-12-21T12:03:00.000Z</time>
      </trkpt>
      <trkpt lat="45.48025" lon="5.9722">
        <ele>447</ele>
        <time>2012-12-21T12:03:03.000Z</time>
      </trkpt>
      <trkpt lat="45.48021" lon="5.97217">
        <ele>448</ele>
        <time>2012-12-21T12:03:05.000Z</time>
      </trkpt>
      <trkpt lat="45.48009" lon="5.97206">
        <ele>449</ele>
        <time>2012-12-21T12:03:10.000Z</time>
      </trkpt>
      <trkpt lat="45.47997" lon="5.97197">
        <ele>450</ele>
        <time>2012-12-21T12:03:15.000Z</time>
      </trkpt>
      <trkpt lat="45.47993" lon="5.97193">
        <ele>451</ele>
        <time>2012-12-21T12:03:17.000Z</time>
      </trkpt>
      <trkpt lat="45.47987" lon="5.97192">
        <ele>451</ele>
        <time>2012-12-21T12:03:19.000Z</time>
      </trkpt>
      <trkpt lat="45.47982" lon="5.97188">
        <ele>452</ele>
        <time>2012-12-21T12:03:22.000Z</time>
      </trkpt>
      <trkpt lat="45.47974" lon="5.97182">
        <ele>453</ele>
        <time>2012-12-21T12:03:27.000Z</time>
      </trkpt>
      <trkpt lat="45.47971" lon="5.97181">
        <ele>453</ele>
        <time>2012-12-21T12:03:29.000Z</time>
      </trkpt>
      <trkpt lat="45.47966" lon="5.97178">
        <ele>453</ele>
        <time>2012-12-21T12:03:31.000Z</time>
      </trkpt>
      <trkpt lat="45.47961" lon="5.97174">
        <ele>454</ele>
        <time>2012-12-21T12:03:33.000Z</time>
      </trkpt>
      <trkpt lat="45.47946" lon="5.97159">
        <ele>455</ele>
        <time>2012-12-21T12:03:42.000Z</time>
      </trkpt>
      <trkpt lat="45.47943" lon="5.97155">
        <ele>456</ele>
        <time>2012-12-21T12:03:44.000Z</time>
      </trkpt>
      <trkpt lat="45.47941" lon="5.9715">
        <ele>456</ele>
        <time>2012-12-21T12:03:46.000Z</time>
      </trkpt>
      <trkpt lat="45.47943" lon="5.97139">
        <ele>457</ele>
        <time>2012-12-21T12:03:49.000Z</time>
      </trkpt>
      <trkpt lat="45.47948" lon="5.97127">
        <ele>457</ele>
        <time>2012-12-21T12:03:52.000Z</time>
      </trkpt>
      <trkpt lat="45.47951" lon="5.97118">
        <ele>458</ele>
        <time>2012-12-21T12:03:54.000Z</time>
      </trkpt>
      <trkpt lat="45.47953" lon="5.97109">
        <ele>459</ele>
        <time>2012-12-21T12:03:56.000Z</time>
      </trkpt>
      <trkpt lat="45.47954" lon="5.97097">
        <ele>459</ele>
        <time>2012-12-21T12:03:59.000Z</time>
      </trkpt>
      <trkpt lat="45.47955" lon="5.97089">
        <ele>460</ele>
        <time>2012-12-21T12:04:01.000Z</time>
      </trkpt>
      <trkpt lat="45.47956" lon="5.97074">
        <ele>461</ele>
        <time>2012-12-21T12:04:04.000Z</time>
      </trkpt>
      <trkpt lat="45.47955" lon="5.97062">
        <ele>462</ele>
        <time>2012-12-21T12:04:07.000Z</time>
      </trkpt>
      <trkpt lat="45.47953" lon="5.97056">
        <ele>463</ele>
        <time>2012-12-21T12:04:09.000Z</time>
      </trkpt>
      <trkpt lat="45.47947" lon="5.97051">
        <ele>463</ele>
        <time>2012-12-21T12:04:12.000Z</time>
      </trkpt>
      <trkpt lat="45.4794" lon="5.97047">
        <ele>464</ele>
        <time>2012-12-21T12:04:15.000Z</time>
      </trkpt>
      <trkpt lat="45.47936" lon="5.97046">
        <ele>465</ele>
        <time>2012-12-21T12:04:17.000Z</time>
      </trkpt>
      <trkpt lat="45.47932" lon="5.97044">
        <ele>466</ele>
        <time>2012-12-21T12:04:19.000Z</time>
      </trkpt>
      <trkpt lat="45.47923" lon="5.97042">
        <ele>466</ele>
        <time>2012-12-21T12:04:22.000Z</time>
      </trkpt>
      <trkpt lat="45.47921" lon="5.97041">
        <ele>467</ele>
        <time>2012-12-21T12:04:24.000Z</time>
      </trkpt>
      <trkpt lat="45.47919" lon="5.97044">
        <ele>467</ele>
        <time>2012-12-21T12:04:27.000Z</time>
      </trkpt>
      <trkpt lat="45.47911" lon="5.97052">
        <ele>467</ele>
        <time>2012-12-21T12:04:32.000Z</time>
      </trkpt>
      <trkpt lat="45.47906" lon="5.97049">
        <ele>467</ele>
        <time>2012-12-21T12:04:35.000Z</time>
      </trkpt>
      <trkpt lat="45.47903" lon="5.97045">
        <ele>467</ele>
        <time>2012-12-21T12:04:37.000Z</time>
      </trkpt>
      <trkpt lat="45.47897" lon="5.97038">
        <ele>467</ele>
        <time>2012-12-21T12:04:39.000Z</time>
      </trkpt>
      <trkpt lat="45.47889" lon="5.97033">
        <ele>467</ele>
        <time>2012-12-21T12:04:43.000Z</time>
      </trkpt>
      <trkpt lat="45.47882" lon="5.97028">
        <ele>468</ele>
        <time>2012-12-21T12:04:45.000Z</time>
      </trkpt>
      <trkpt lat="45.47839" lon="5.97001">
        <ele>468</ele>
        <time>2012-12-21T12:05:02.000Z</time>
      </trkpt>
      <trkpt lat="45.47829" lon="5.96999">
        <ele>468</ele>
        <time>2012-12-21T12:05:05.000Z</time>
      </trkpt>
      <trkpt lat="45.47821" lon="5.97001">
        <ele>468</ele>
        <time>2012-12-21T12:05:07.000Z</time>
      </trkpt>
      <trkpt lat="45.47811" lon="5.97002">
        <ele>468</ele>
        <time>2012-12-21T12:05:10.000Z</time>
      </trkpt>
      <trkpt lat="45.478" lon="5.97001">
        <ele>468</ele>
        <time>2012-12-21T12:05:13.000Z</time>
      </trkpt>
      <trkpt lat="45.47794" lon="5.97">
        <ele>467</ele>
        <time>2012-12-21T12:05:15.000Z</time>
      </trkpt>
      <trkpt lat="45.47746" lon="5.96997">
        <ele>467</ele>
        <time>2012-12-21T12:05:31.000Z</time>
      </trkpt>
      <trkpt lat="45.47737" lon="5.97003">
        <ele>466</ele>
        <time>2012-12-21T12:05:34.000Z</time>
      </trkpt>
      <trkpt lat="45.47732" lon="5.97006">
        <ele>466</ele>
        <time>2012-12-21T12:05:36.000Z</time>
      </trkpt>
      <trkpt lat="45.47725" lon="5.97014">
        <ele>466</ele>
        <time>2012-12-21T12:05:39.000Z</time>
      </trkpt>
      <trkpt lat="45.4772" lon="5.97018">
        <ele>466</ele>
        <time>2012-12-21T12:05:41.000Z</time>
      </trkpt>
      <trkpt lat="45.4771" lon="5.97019">
        <ele>466</ele>
        <time>2012-12-21T12:05:44.000Z</time>
      </trkpt>
      <trkpt lat="45.47693" lon="5.97023">
        <ele>466</ele>
        <time>2012-12-21T12:05:50.000Z</time>
      </trkpt>
      <trkpt lat="45.47688" lon="5.97025">
        <ele>466</ele>
        <time>2012-12-21T12:05:52.000Z</time>
      </trkpt>
      <trkpt lat="45.4768" lon="5.97025">
        <ele>466</ele>
        <time>2012-12-21T12:05:55.000Z</time>
      </trkpt>
      <trkpt lat="45.47644" lon="5.97031">
        <ele>467</ele>
        <time>2012-12-21T12:06:05.000Z</time>
      </trkpt>
      <trkpt lat="45.47638" lon="5.97032">
        <ele>467</ele>
        <time>2012-12-21T12:06:08.000Z</time>
      </trkpt>
      <trkpt lat="45.47602" lon="5.97043">
        <ele>468</ele>
        <time>2012-12-21T12:06:21.000Z</time>
      </trkpt>
      <trkpt lat="45.47594" lon="5.97042">
        <ele>468</ele>
        <time>2012-12-21T12:06:24.000Z</time>
      </trkpt>
      <trkpt lat="45.47585" lon="5.97043">
        <ele>468</ele>
        <time>2012-12-21T12:06:27.000Z</time>
      </trkpt>
      <trkpt lat="45.47555" lon="5.97042">
        <ele>468</ele>
        <time>2012-12-21T12:06:36.000Z</time>
      </trkpt>
      <trkpt lat="45.4755" lon="5.97041">
        <ele>468</ele>
        <time>2012-12-21T12:06:39.000Z</time>
      </trkpt>
      <trkpt lat="45.47525" lon="5.97037">
        <ele>468</ele>
        <time>2012-12-21T12:06:47.000Z</time>
      </trkpt>
      <trkpt lat="45.47501" lon="5.97036">
        <ele>468</ele>
        <time>2012-12-21T12:06:53.000Z</time>
      </trkpt>
      <trkpt lat="45.47496" lon="5.97038">
        <ele>468</ele>
        <time>2012-12-21T12:06:56.000Z</time>
      </trkpt>
      <trkpt lat="45.47489" lon="5.97047">
        <ele>468</ele>
        <time>2012-12-21T12:06:59.000Z</time>
      </trkpt>
      <trkpt lat="45.47485" lon="5.97054">
        <ele>468</ele>
        <time>2012-12-21T12:07:01.000Z</time>
      </trkpt>
      <trkpt lat="45.47472" lon="5.97069">
        <ele>468</ele>
        <time>2012-12-21T12:07:08.000Z</time>
      </trkpt>
      <trkpt lat="45.47467" lon="5.9707">
        <ele>468</ele>
        <time>2012-12-21T12:07:10.000Z</time>
      </trkpt>
      <trkpt lat="45.47456" lon="5.97071">
        <ele>469</ele>
        <time>2012-12-21T12:07:15.000Z</time>
      </trkpt>
      <trkpt lat="45.47448" lon="5.97072">
        <ele>469</ele>
        <time>2012-12-21T12:07:17.000Z</time>
      </trkpt>
      <trkpt lat="45.47443" lon="5.97076">
        <ele>469</ele>
        <time>2012-12-21T12:07:19.000Z</time>
      </trkpt>
      <trkpt lat="45.47437" lon="5.97079">
        <ele>470</ele>
        <time>2012-12-21T12:07:21.000Z</time>
      </trkpt>
      <trkpt lat="45.47433" lon="5.97083">
        <ele>470</ele>
        <time>2012-12-21T12:07:24.000Z</time>
      </trkpt>
      <trkpt lat="45.47429" lon="5.97089">
        <ele>470</ele>
        <time>2012-12-21T12:07:26.000Z</time>
      </trkpt>
      <trkpt lat="45.47418" lon="5.97116">
        <ele>469</ele>
        <time>2012-12-21T12:07:33.000Z</time>
      </trkpt>
      <trkpt lat="45.47414" lon="5.97123">
        <ele>468</ele>
        <time>2012-12-21T12:07:36.000Z</time>
      </trkpt>
      <trkpt lat="45.47411" lon="5.97126">
        <ele>468</ele>
        <time>2012-12-21T12:07:39.000Z</time>
      </trkpt>
      <trkpt lat="45.47409" lon="5.97127">
        <ele>468</ele>
        <time>2012-12-21T12:07:41.000Z</time>
      </trkpt>
      <trkpt lat="45.47406" lon="5.97129">
        <ele>467</ele>
        <time>2012-12-21T12:07:44.000Z</time>
      </trkpt>
      <trkpt lat="45.47402" lon="5.97127">
        <ele>467</ele>
        <time>2012-12-21T12:07:47.000Z</time>
      </trkpt>
      <trkpt lat="45.47399" lon="5.97125">
        <ele>468</ele>
        <time>2012-12-21T12:07:49.000Z</time>
      </trkpt>
      <trkpt lat="45.47393" lon="5.97126">
        <ele>468</ele>
        <time>2012-12-21T12:07:52.000Z</time>
      </trkpt>
      <trkpt lat="45.47387" lon="5.97129">
        <ele>469</ele>
        <time>2012-12-21T12:07:55.000Z</time>
      </trkpt>
      <trkpt lat="45.4738" lon="5.97134">
        <ele>469</ele>
        <time>2012-12-21T12:07:58.000Z</time>
      </trkpt>
      <trkpt lat="45.47375" lon="5.97137">
        <ele>470</ele>
        <time>2012-12-21T12:08:01.000Z</time>
      </trkpt>
      <trkpt lat="45.47366" lon="5.97142">
        <ele>471</ele>
        <time>2012-12-21T12:08:07.000Z</time>
      </trkpt>
      <trkpt lat="45.4736" lon="5.97143">
        <ele>471</ele>
        <time>2012-12-21T12:08:09.000Z</time>
      </trkpt>
      <trkpt lat="45.4735" lon="5.97146">
        <ele>472</ele>
        <time>2012-12-21T12:08:15.000Z</time>
      </trkpt>
      <trkpt lat="45.4734" lon="5.97149">
        <ele>473</ele>
        <time>2012-12-21T12:08:21.000Z</time>
      </trkpt>
      <trkpt lat="45.47334" lon="5.97149">
        <ele>473</ele>
        <time>2012-12-21T12:08:23.000Z</time>
      </trkpt>
      <trkpt lat="45.47329" lon="5.9715">
        <ele>474</ele>
        <time>2012-12-21T12:08:25.000Z</time>
      </trkpt>
      <trkpt lat="45.47324" lon="5.9715">
        <ele>475</ele>
        <time>2012-12-21T12:08:28.000Z</time>
      </trkpt>
      <trkpt lat="45.47318" lon="5.9715">
        <ele>476</ele>
        <time>2012-12-21T12:08:31.000Z</time>
      </trkpt>
      <trkpt lat="45.47311" lon="5.97148">
        <ele>477</ele>
        <time>2012-12-21T12:08:33.000Z</time>
      </trkpt>
      <trkpt lat="45.47307" lon="5.97147">
        <ele>478</ele>
        <time>2012-12-21T12:08:35.000Z</time>
      </trkpt>
      <trkpt lat="45.47303" lon="5.97146">
        <ele>479</ele>
        <time>2012-12-21T12:08:38.000Z</time>
      </trkpt>
      <trkpt lat="45.473" lon="5.97145">
        <ele>480</ele>
        <time>2012-12-21T12:08:40.000Z</time>
      </trkpt>
      <trkpt lat="45.47294" lon="5.97145">
        <ele>480</ele>
        <time>2012-12-21T12:08:43.000Z</time>
      </trkpt>
      <trkpt lat="45.47287" lon="5.97147">
        <ele>481</ele>
        <time>2012-12-21T12:08:46.000Z</time>
      </trkpt>
      <trkpt lat="45.47284" lon="5.97149">
        <ele>482</ele>
        <time>2012-12-21T12:08:48.000Z</time>
      </trkpt>
      <trkpt lat="45.47279" lon="5.97153">
        <ele>483</ele>
        <time>2012-12-21T12:08:51.000Z</time>
      </trkpt>
      <trkpt lat="45.47274" lon="5.97155">
        <ele>484</ele>
        <time>2012-12-21T12:08:53.000Z</time>
      </trkpt>
      <trkpt lat="45.47272" lon="5.97157">
        <ele>484</ele>
        <time>2012-12-21T12:08:56.000Z</time>
      </trkpt>
      <trkpt lat="45.47266" lon="5.97158">
        <ele>485</ele>
        <time>2012-12-21T12:08:59.000Z</time>
      </trkpt>
      <trkpt lat="45.4726" lon="5.97158">
        <ele>485</ele>
        <time>2012-12-21T12:09:01.000Z</time>
      </trkpt>
      <trkpt lat="45.47256" lon="5.97159">
        <ele>486</ele>
        <time>2012-12-21T12:09:04.000Z</time>
      </trkpt>
      <trkpt lat="45.47252" lon="5.97161">
        <ele>487</ele>
        <time>2012-12-21T12:09:07.000Z</time>
      </trkpt>
      <trkpt lat="45.47242" lon="5.97164">
        <ele>488</ele>
        <time>2012-12-21T12:09:12.000Z</time>
      </trkpt>
      <trkpt lat="45.47234" lon="5.97162">
        <ele>489</ele>
        <time>2012-12-21T12:09:15.000Z</time>
      </trkpt>
      <trkpt lat="45.4723" lon="5.97157">
        <ele>489</ele>
        <time>2012-12-21T12:09:18.000Z</time>
      </trkpt>
      <trkpt lat="45.47227" lon="5.97154">
        <ele>490</ele>
        <time>2012-12-21T12:09:20.000Z</time>
      </trkpt>
      <trkpt lat="45.47224" lon="5.9715">
        <ele>491</ele>
        <time>2012-12-21T12:09:23.000Z</time>
      </trkpt>
      <trkpt lat="45.4722" lon="5.97143">
        <ele>492</ele>
        <time>2012-12-21T12:09:26.000Z</time>
      </trkpt>
      <trkpt lat="45.47218" lon="5.97138">
        <ele>493</ele>
        <time>2012-12-21T12:09:28.000Z</time>
      </trkpt>
      <trkpt lat="45.47213" lon="5.97134">
        <ele>493</ele>
        <time>2012-12-21T12:09:30.000Z</time>
      </trkpt>
      <trkpt lat="45.47211" lon="5.97131">
        <ele>494</ele>
        <time>2012-12-21T12:09:33.000Z</time>
      </trkpt>
      <trkpt lat="45.47209" lon="5.97128">
        <ele>495</ele>
        <time>2012-12-21T12:09:35.000Z</time>
      </trkpt>
      <trkpt lat="45.47204" lon="5.97127">
        <ele>496</ele>
        <time>2012-12-21T12:09:37.000Z</time>
      </trkpt>
      <trkpt lat="45.47201" lon="5.97129">
        <ele>496</ele>
        <time>2012-12-21T12:09:40.000Z</time>
      </trkpt>
      <trkpt lat="45.47199" lon="5.97131">
        <ele>497</ele>
        <time>2012-12-21T12:09:42.000Z</time>
      </trkpt>
      <trkpt lat="45.47196" lon="5.97133">
        <ele>497</ele>
        <time>2012-12-21T12:09:45.000Z</time>
      </trkpt>
      <trkpt lat="45.47193" lon="5.97134">
        <ele>497</ele>
        <time>2012-12-21T12:09:47.000Z</time>
      </trkpt>
      <trkpt lat="45.47187" lon="5.97134">
        <ele>497</ele>
        <time>2012-12-21T12:09:50.000Z</time>
      </trkpt>
      <trkpt lat="45.47182" lon="5.97135">
        <ele>498</ele>
        <time>2012-12-21T12:09:52.000Z</time>
      </trkpt>
      <trkpt lat="45.47175" lon="5.97136">
        <ele>498</ele>
        <time>2012-12-21T12:09:55.000Z</time>
      </trkpt>
      <trkpt lat="45.4717" lon="5.97138">
        <ele>499</ele>
        <time>2012-12-21T12:09:57.000Z</time>
      </trkpt>
      <trkpt lat="45.47156" lon="5.97141">
        <ele>500</ele>
        <time>2012-12-21T12:10:02.000Z</time>
      </trkpt>
      <trkpt lat="45.4715" lon="5.97138">
        <ele>501</ele>
        <time>2012-12-21T12:10:05.000Z</time>
      </trkpt>
      <trkpt lat="45.47146" lon="5.97136">
        <ele>502</ele>
        <time>2012-12-21T12:10:08.000Z</time>
      </trkpt>
      <trkpt lat="45.47139" lon="5.97136">
        <ele>502</ele>
        <time>2012-12-21T12:10:11.000Z</time>
      </trkpt>
      <trkpt lat="45.47135" lon="5.97136">
        <ele>503</ele>
        <time>2012-12-21T12:10:13.000Z</time>
      </trkpt>
      <trkpt lat="45.47126" lon="5.97138">
        <ele>504</ele>
        <time>2012-12-21T12:10:16.000Z</time>
      </trkpt>
      <trkpt lat="45.47118" lon="5.97138">
        <ele>505</ele>
        <time>2012-12-21T12:10:19.000Z</time>
      </trkpt>
      <trkpt lat="45.4711" lon="5.97139">
        <ele>506</ele>
        <time>2012-12-21T12:10:21.000Z</time>
      </trkpt>
      <trkpt lat="45.47105" lon="5.97139">
        <ele>507</ele>
        <time>2012-12-21T12:10:24.000Z</time>
      </trkpt>
      <trkpt lat="45.47097" lon="5.97138">
        <ele>507</ele>
        <time>2012-12-21T12:10:27.000Z</time>
      </trkpt>
      <trkpt lat="45.47092" lon="5.97137">
        <ele>508</ele>
        <time>2012-12-21T12:10:29.000Z</time>
      </trkpt>
      <trkpt lat="45.47086" lon="5.97136">
        <ele>509</ele>
        <time>2012-12-21T12:10:32.000Z</time>
      </trkpt>
      <trkpt lat="45.47081" lon="5.97135">
        <ele>510</ele>
        <time>2012-12-21T12:10:34.000Z</time>
      </trkpt>
      <trkpt lat="45.47076" lon="5.97134">
        <ele>510</ele>
        <time>2012-12-21T12:10:36.000Z</time>
      </trkpt>
      <trkpt lat="45.47069" lon="5.97132">
        <ele>511</ele>
        <time>2012-12-21T12:10:39.000Z</time>
      </trkpt>
      <trkpt lat="45.47056" lon="5.97132">
        <ele>511</ele>
        <time>2012-12-21T12:10:44.000Z</time>
      </trkpt>
      <trkpt lat="45.4705" lon="5.97134">
        <ele>512</ele>
        <time>2012-12-21T12:10:47.000Z</time>
      </trkpt>
      <trkpt lat="45.47031" lon="5.97143">
        <ele>513</ele>
        <time>2012-12-21T12:10:55.000Z</time>
      </trkpt>
      <trkpt lat="45.47026" lon="5.97148">
        <ele>513</ele>
        <time>2012-12-21T12:10:58.000Z</time>
      </trkpt>
      <trkpt lat="45.47023" lon="5.97153">
        <ele>513</ele>
        <time>2012-12-21T12:11:00.000Z</time>
      </trkpt>
      <trkpt lat="45.4702" lon="5.97163">
        <ele>514</ele>
        <time>2012-12-21T12:11:03.000Z</time>
      </trkpt>
      <trkpt lat="45.47017" lon="5.97168">
        <ele>514</ele>
        <time>2012-12-21T12:11:05.000Z</time>
      </trkpt>
      <trkpt lat="45.47013" lon="5.97175">
        <ele>515</ele>
        <time>2012-12-21T12:11:08.000Z</time>
      </trkpt>
      <trkpt lat="45.47006" lon="5.97185">
        <ele>516</ele>
        <time>2012-12-21T12:11:14.000Z</time>
      </trkpt>
      <trkpt lat="45.47002" lon="5.97188">
        <ele>517</ele>
        <time>2012-12-21T12:11:16.000Z</time>
      </trkpt>
      <trkpt lat="45.46991" lon="5.97205">
        <ele>518</ele>
        <time>2012-12-21T12:11:22.000Z</time>
      </trkpt>
      <trkpt lat="45.46988" lon="5.97211">
        <ele>519</ele>
        <time>2012-12-21T12:11:24.000Z</time>
      </trkpt>
      <trkpt lat="45.46984" lon="5.97218">
        <ele>520</ele>
        <time>2012-12-21T12:11:27.000Z</time>
      </trkpt>
      <trkpt lat="45.46978" lon="5.9723">
        <ele>521</ele>
        <time>2012-12-21T12:11:32.000Z</time>
      </trkpt>
      <trkpt lat="45.46975" lon="5.97235">
        <ele>522</ele>
        <time>2012-12-21T12:11:34.000Z</time>
      </trkpt>
      <trkpt lat="45.46969" lon="5.97238">
        <ele>522</ele>
        <time>2012-12-21T12:11:37.000Z</time>
      </trkpt>
      <trkpt lat="45.46964" lon="5.97243">
        <ele>523</ele>
        <time>2012-12-21T12:11:39.000Z</time>
      </trkpt>
      <trkpt lat="45.46961" lon="5.97248">
        <ele>523</ele>
        <time>2012-12-21T12:11:42.000Z</time>
      </trkpt>
      <trkpt lat="45.46956" lon="5.97254">
        <ele>523</ele>
        <time>2012-12-21T12:11:45.000Z</time>
      </trkpt>
      <trkpt lat="45.46948" lon="5.97254">
        <ele>524</ele>
        <time>2012-12-21T12:11:48.000Z</time>
      </trkpt>
      <trkpt lat="45.46943" lon="5.97254">
        <ele>524</ele>
        <time>2012-12-21T12:11:50.000Z</time>
      </trkpt>
      <trkpt lat="45.46931" lon="5.9725">
        <ele>524</ele>
        <time>2012-12-21T12:11:55.000Z</time>
      </trkpt>
      <trkpt lat="45.46924" lon="5.97247">
        <ele>524</ele>
        <time>2012-12-21T12:11:58.000Z</time>
      </trkpt>
      <trkpt lat="45.46909" lon="5.97244">
        <ele>524</ele>
        <time>2012-12-21T12:12:03.000Z</time>
      </trkpt>
      <trkpt lat="45.469" lon="5.9725">
        <ele>524</ele>
        <time>2012-12-21T12:12:06.000Z</time>
      </trkpt>
      <trkpt lat="45.46896" lon="5.97255">
        <ele>525</ele>
        <time>2012-12-21T12:12:08.000Z</time>
      </trkpt>
      <trkpt lat="45.46891" lon="5.97261">
        <ele>525</ele>
        <time>2012-12-21T12:12:11.000Z</time>
      </trkpt>
      <trkpt lat="45.46888" lon="5.97269">
        <ele>526</ele>
        <time>2012-12-21T12:12:14.000Z</time>
      </trkpt>
      <trkpt lat="45.46886" lon="5.97275">
        <ele>527</ele>
        <time>2012-12-21T12:12:16.000Z</time>
      </trkpt>
      <trkpt lat="45.4688" lon="5.9729">
        <ele>528</ele>
        <time>2012-12-21T12:12:22.000Z</time>
      </trkpt>
      <trkpt lat="45.46878" lon="5.97294">
        <ele>529</ele>
        <time>2012-12-21T12:12:24.000Z</time>
      </trkpt>
      <trkpt lat="45.46876" lon="5.97303">
        <ele>530</ele>
        <time>2012-12-21T12:12:27.000Z</time>
      </trkpt>
      <trkpt lat="45.46875" lon="5.97313">
        <ele>530</ele>
        <time>2012-12-21T12:12:29.000Z</time>
      </trkpt>
      <trkpt lat="45.46875" lon="5.97318">
        <ele>531</ele>
        <time>2012-12-21T12:12:32.000Z</time>
      </trkpt>
      <trkpt lat="45.46875" lon="5.97326">
        <ele>532</ele>
        <time>2012-12-21T12:12:35.000Z</time>
      </trkpt>
      <trkpt lat="45.46873" lon="5.97335">
        <ele>532</ele>
        <time>2012-12-21T12:12:38.000Z</time>
      </trkpt>
      <trkpt lat="45.4687" lon="5.97339">
        <ele>533</ele>
        <time>2012-12-21T12:12:40.000Z</time>
      </trkpt>
      <trkpt lat="45.46863" lon="5.97347">
        <ele>534</ele>
        <time>2012-12-21T12:12:43.000Z</time>
      </trkpt>
      <trkpt lat="45.46848" lon="5.97354">
        <ele>535</ele>
        <time>2012-12-21T12:12:49.000Z</time>
      </trkpt>
      <trkpt lat="45.46841" lon="5.97349">
        <ele>535</ele>
        <time>2012-12-21T12:12:51.000Z</time>
      </trkpt>
      <trkpt lat="45.46838" lon="5.97345">
        <ele>536</ele>
        <time>2012-12-21T12:12:53.000Z</time>
      </trkpt>
      <trkpt lat="45.46825" lon="5.97334">
        <ele>536</ele>
        <time>2012-12-21T12:12:59.000Z</time>
      </trkpt>
      <trkpt lat="45.46815" lon="5.97328">
        <ele>536</ele>
        <time>2012-12-21T12:13:02.000Z</time>
      </trkpt>
      <trkpt lat="45.46784" lon="5.97312">
        <ele>535</ele>
        <time>2012-12-21T12:13:09.000Z</time>
      </trkpt>
      <trkpt lat="45.46777" lon="5.9731">
        <ele>535</ele>
        <time>2012-12-21T12:13:12.000Z</time>
      </trkpt>
      <trkpt lat="45.46767" lon="5.97306">
        <ele>535</ele>
        <time>2012-12-21T12:13:15.000Z</time>
      </trkpt>
      <trkpt lat="45.46745" lon="5.97301">
        <ele>534</ele>
        <time>2012-12-21T12:13:23.000Z</time>
      </trkpt>
      <trkpt lat="45.46735" lon="5.97301">
        <ele>534</ele>
        <time>2012-12-21T12:13:26.000Z</time>
      </trkpt>
      <trkpt lat="45.4673" lon="5.973">
        <ele>534</ele>
        <time>2012-12-21T12:13:28.000Z</time>
      </trkpt>
      <trkpt lat="45.46722" lon="5.97295">
        <ele>534</ele>
        <time>2012-12-21T12:13:30.000Z</time>
      </trkpt>
      <trkpt lat="45.46715" lon="5.97294">
        <ele>534</ele>
        <time>2012-12-21T12:13:33.000Z</time>
      </trkpt>
      <trkpt lat="45.46709" lon="5.97293">
        <ele>533</ele>
        <time>2012-12-21T12:13:35.000Z</time>
      </trkpt>
      <trkpt lat="45.46686" lon="5.97287">
        <ele>533</ele>
        <time>2012-12-21T12:13:42.000Z</time>
      </trkpt>
      <trkpt lat="45.4668" lon="5.97283">
        <ele>533</ele>
        <time>2012-12-21T12:13:45.000Z</time>
      </trkpt>
      <trkpt lat="45.46672" lon="5.97279">
        <ele>533</ele>
        <time>2012-12-21T12:13:47.000Z</time>
      </trkpt>
      <trkpt lat="45.46659" lon="5.97276">
        <ele>533</ele>
        <time>2012-12-21T12:13:50.000Z</time>
      </trkpt>
      <trkpt lat="45.46651" lon="5.97274">
        <ele>532</ele>
        <time>2012-12-21T12:13:52.000Z</time>
      </trkpt>
      <trkpt lat="45.46642" lon="5.97269">
        <ele>532</ele>
        <time>2012-12-21T12:13:55.000Z</time>
      </trkpt>
      <trkpt lat="45.46629" lon="5.97266">
        <ele>532</ele>
        <time>2012-12-21T12:14:01.000Z</time>
      </trkpt>
      <trkpt lat="45.46622" lon="5.97267">
        <ele>532</ele>
        <time>2012-12-21T12:14:04.000Z</time>
      </trkpt>
      <trkpt lat="45.46612" lon="5.97267">
        <ele>532</ele>
        <time>2012-12-21T12:14:07.000Z</time>
      </trkpt>
      <trkpt lat="45.466" lon="5.97265">
        <ele>532</ele>
        <time>2012-12-21T12:14:10.000Z</time>
      </trkpt>
      <trkpt lat="45.46574" lon="5.97266">
        <ele>532</ele>
        <time>2012-12-21T12:14:17.000Z</time>
      </trkpt>
      <trkpt lat="45.46564" lon="5.97268">
        <ele>532</ele>
        <time>2012-12-21T12:14:20.000Z</time>
      </trkpt>
      <trkpt lat="45.46556" lon="5.97267">
        <ele>532</ele>
        <time>2012-12-21T12:14:23.000Z</time>
      </trkpt>
      <trkpt lat="45.46551" lon="5.97265">
        <ele>531</ele>
        <time>2012-12-21T12:14:25.000Z</time>
      </trkpt>
      <trkpt lat="45.46542" lon="5.97263">
        <ele>530</ele>
        <time>2012-12-21T12:14:28.000Z</time>
      </trkpt>
      <trkpt lat="45.46535" lon="5.9726">
        <ele>530</ele>
        <time>2012-12-21T12:14:30.000Z</time>
      </trkpt>
      <trkpt lat="45.46529" lon="5.97258">
        <ele>529</ele>
        <time>2012-12-21T12:14:32.000Z</time>
      </trkpt>
      <trkpt lat="45.46516" lon="5.97251">
        <ele>528</ele>
        <time>2012-12-21T12:14:37.000Z</time>
      </trkpt>
      <trkpt lat="45.46502" lon="5.97242">
        <ele>527</ele>
        <time>2012-12-21T12:14:42.000Z</time>
      </trkpt>
      <trkpt lat="45.46467" lon="5.97225">
        <ele>528</ele>
        <time>2012-12-21T12:14:53.000Z</time>
      </trkpt>
      <trkpt lat="45.46458" lon="5.97222">
        <ele>528</ele>
        <time>2012-12-21T12:14:55.000Z</time>
      </trkpt>
      <trkpt lat="45.46447" lon="5.97217">
        <ele>529</ele>
        <time>2012-12-21T12:14:57.000Z</time>
      </trkpt>
      <trkpt lat="45.4644" lon="5.97211">
        <ele>529</ele>
        <time>2012-12-21T12:15:00.000Z</time>
      </trkpt>
      <trkpt lat="45.46432" lon="5.97206">
        <ele>530</ele>
        <time>2012-12-21T12:15:03.000Z</time>
      </trkpt>
      <trkpt lat="45.46424" lon="5.97205">
        <ele>531</ele>
        <time>2012-12-21T12:15:06.000Z</time>
      </trkpt>
      <trkpt lat="45.46417" lon="5.97214">
        <ele>531</ele>
        <time>2012-12-21T12:15:09.000Z</time>
      </trkpt>
      <trkpt lat="45.46412" lon="5.97224">
        <ele>531</ele>
        <time>2012-12-21T12:15:11.000Z</time>
      </trkpt>
      <trkpt lat="45.46399" lon="5.97243">
        <ele>531</ele>
        <time>2012-12-21T12:15:16.000Z</time>
      </trkpt>
      <trkpt lat="45.46389" lon="5.97261">
        <ele>531</ele>
        <time>2012-12-21T12:15:21.000Z</time>
      </trkpt>
      <trkpt lat="45.46385" lon="5.9728">
        <ele>530</ele>
        <time>2012-12-21T12:15:24.000Z</time>
      </trkpt>
      <trkpt lat="45.46382" lon="5.97297">
        <ele>529</ele>
        <time>2012-12-21T12:15:27.000Z</time>
      </trkpt>
      <trkpt lat="45.46378" lon="5.9731">
        <ele>528</ele>
        <time>2012-12-21T12:15:29.000Z</time>
      </trkpt>
      <trkpt lat="45.46375" lon="5.9732">
        <ele>527</ele>
        <time>2012-12-21T12:15:32.000Z</time>
      </trkpt>
      <trkpt lat="45.46371" lon="5.97329">
        <ele>525</ele>
        <time>2012-12-21T12:15:34.000Z</time>
      </trkpt>
      <trkpt lat="45.46367" lon="5.97342">
        <ele>524</ele>
        <time>2012-12-21T12:15:37.000Z</time>
      </trkpt>
      <trkpt lat="45.46363" lon="5.97354">
        <ele>522</ele>
        <time>2012-12-21T12:15:40.000Z</time>
      </trkpt>
      <trkpt lat="45.46357" lon="5.97366">
        <ele>521</ele>
        <time>2012-12-21T12:15:42.000Z</time>
      </trkpt>
      <trkpt lat="45.46352" lon="5.97372">
        <ele>520</ele>
        <time>2012-12-21T12:15:45.000Z</time>
      </trkpt>
      <trkpt lat="45.46344" lon="5.97379">
        <ele>519</ele>
        <time>2012-12-21T12:15:47.000Z</time>
      </trkpt>
      <trkpt lat="45.46341" lon="5.97383">
        <ele>518</ele>
        <time>2012-12-21T12:15:50.000Z</time>
      </trkpt>
      <trkpt lat="45.46337" lon="5.97387">
        <ele>517</ele>
        <time>2012-12-21T12:15:52.000Z</time>
      </trkpt>
      <trkpt lat="45.46315" lon="5.97406">
        <ele>516</ele>
        <time>2012-12-21T12:15:57.000Z</time>
      </trkpt>
      <trkpt lat="45.46297" lon="5.97418">
        <ele>515</ele>
        <time>2012-12-21T12:16:00.000Z</time>
      </trkpt>
      <trkpt lat="45.46284" lon="5.97428">
        <ele>514</ele>
        <time>2012-12-21T12:16:03.000Z</time>
      </trkpt>
      <trkpt lat="45.46275" lon="5.97436">
        <ele>512</ele>
        <time>2012-12-21T12:16:06.000Z</time>
      </trkpt>
      <trkpt lat="45.46269" lon="5.97441">
        <ele>510</ele>
        <time>2012-12-21T12:16:08.000Z</time>
      </trkpt>
      <trkpt lat="45.4626" lon="5.97446">
        <ele>509</ele>
        <time>2012-12-21T12:16:11.000Z</time>
      </trkpt>
      <trkpt lat="45.4625" lon="5.97448">
        <ele>508</ele>
        <time>2012-12-21T12:16:14.000Z</time>
      </trkpt>
      <trkpt lat="45.4624" lon="5.97453">
        <ele>507</ele>
        <time>2012-12-21T12:16:17.000Z</time>
      </trkpt>
      <trkpt lat="45.46233" lon="5.97456">
        <ele>506</ele>
        <time>2012-12-21T12:16:19.000Z</time>
      </trkpt>
      <trkpt lat="45.46189" lon="5.97482">
        <ele>505</ele>
        <time>2012-12-21T12:16:35.000Z</time>
      </trkpt>
      <trkpt lat="45.46152" lon="5.97509">
        <ele>504</ele>
        <time>2012-12-21T12:16:47.000Z</time>
      </trkpt>
      <trkpt lat="45.46138" lon="5.97522">
        <ele>504</ele>
        <time>2012-12-21T12:16:52.000Z</time>
      </trkpt>
      <trkpt lat="45.4613" lon="5.97533">
        <ele>503</ele>
        <time>2012-12-21T12:16:55.000Z</time>
      </trkpt>
      <trkpt lat="45.46122" lon="5.97545">
        <ele>502</ele>
        <time>2012-12-21T12:16:58.000Z</time>
      </trkpt>
      <trkpt lat="45.46115" lon="5.97554">
        <ele>501</ele>
        <time>2012-12-21T12:17:00.000Z</time>
      </trkpt>
      <trkpt lat="45.46109" lon="5.97565">
        <ele>500</ele>
        <time>2012-12-21T12:17:02.000Z</time>
      </trkpt>
      <trkpt lat="45.46101" lon="5.97585">
        <ele>499</ele>
        <time>2012-12-21T12:17:05.000Z</time>
      </trkpt>
      <trkpt lat="45.46093" lon="5.97602">
        <ele>497</ele>
        <time>2012-12-21T12:17:08.000Z</time>
      </trkpt>
      <trkpt lat="45.4609" lon="5.97612">
        <ele>496</ele>
        <time>2012-12-21T12:17:10.000Z</time>
      </trkpt>
      <trkpt lat="45.46083" lon="5.97627">
        <ele>494</ele>
        <time>2012-12-21T12:17:13.000Z</time>
      </trkpt>
      <trkpt lat="45.46076" lon="5.97638">
        <ele>492</ele>
        <time>2012-12-21T12:17:15.000Z</time>
      </trkpt>
      <trkpt lat="45.46068" lon="5.9765">
        <ele>490</ele>
        <time>2012-12-21T12:17:18.000Z</time>
      </trkpt>
      <trkpt lat="45.46065" lon="5.97658">
        <ele>489</ele>
        <time>2012-12-21T12:17:20.000Z</time>
      </trkpt>
      <trkpt lat="45.46061" lon="5.9767">
        <ele>487</ele>
        <time>2012-12-21T12:17:23.000Z</time>
      </trkpt>
      <trkpt lat="45.46058" lon="5.97678">
        <ele>486</ele>
        <time>2012-12-21T12:17:25.000Z</time>
      </trkpt>
      <trkpt lat="45.46053" lon="5.97685">
        <ele>485</ele>
        <time>2012-12-21T12:17:27.000Z</time>
      </trkpt>
      <trkpt lat="45.4605" lon="5.97692">
        <ele>484</ele>
        <time>2012-12-21T12:17:29.000Z</time>
      </trkpt>
      <trkpt lat="45.46045" lon="5.977">
        <ele>483</ele>
        <time>2012-12-21T12:17:32.000Z</time>
      </trkpt>
      <trkpt lat="45.46037" lon="5.97713">
        <ele>482</ele>
        <time>2012-12-21T12:17:37.000Z</time>
      </trkpt>
      <trkpt lat="45.46029" lon="5.97724">
        <ele>481</ele>
        <time>2012-12-21T12:17:42.000Z</time>
      </trkpt>
      <trkpt lat="45.4602" lon="5.9774">
        <ele>480</ele>
        <time>2012-12-21T12:17:47.000Z</time>
      </trkpt>
      <trkpt lat="45.4601" lon="5.97758">
        <ele>479</ele>
        <time>2012-12-21T12:17:52.000Z</time>
      </trkpt>
      <trkpt lat="45.46005" lon="5.97769">
        <ele>478</ele>
        <time>2012-12-21T12:17:55.000Z</time>
      </trkpt>
      <trkpt lat="45.45997" lon="5.97789">
        <ele>477</ele>
        <time>2012-12-21T12:18:00.000Z</time>
      </trkpt>
      <trkpt lat="45.45979" lon="5.97841">
        <ele>476</ele>
        <time>2012-12-21T12:18:12.000Z</time>
      </trkpt>
      <trkpt lat="45.45976" lon="5.97868">
        <ele>476</ele>
        <time>2012-12-21T12:18:17.000Z</time>
      </trkpt>
      <trkpt lat="45.45976" lon="5.97882">
        <ele>475</ele>
        <time>2012-12-21T12:18:19.000Z</time>
      </trkpt>
      <trkpt lat="45.45975" lon="5.97901">
        <ele>474</ele>
        <time>2012-12-21T12:18:22.000Z</time>
      </trkpt>
      <trkpt lat="45.45975" lon="5.97913">
        <ele>473</ele>
        <time>2012-12-21T12:18:24.000Z</time>
      </trkpt>
      <trkpt lat="45.45972" lon="5.97937">
        <ele>471</ele>
        <time>2012-12-21T12:18:27.000Z</time>
      </trkpt>
      <trkpt lat="45.45968" lon="5.97951">
        <ele>470</ele>
        <time>2012-12-21T12:18:30.000Z</time>
      </trkpt>
      <trkpt lat="45.45966" lon="5.9796">
        <ele>469</ele>
        <time>2012-12-21T12:18:32.000Z</time>
      </trkpt>
      <trkpt lat="45.45966" lon="5.97971">
        <ele>468</ele>
        <time>2012-12-21T12:18:34.000Z</time>
      </trkpt>
      <trkpt lat="45.45967" lon="5.97983">
        <ele>467</ele>
        <time>2012-12-21T12:18:36.000Z</time>
      </trkpt>
      <trkpt lat="45.45968" lon="5.97999">
        <ele>466</ele>
        <time>2012-12-21T12:18:39.000Z</time>
      </trkpt>
      <trkpt lat="45.4597" lon="5.98016">
        <ele>465</ele>
        <time>2012-12-21T12:18:41.000Z</time>
      </trkpt>
      <trkpt lat="45.45972" lon="5.98028">
        <ele>464</ele>
        <time>2012-12-21T12:18:44.000Z</time>
      </trkpt>
      <trkpt lat="45.45973" lon="5.98046">
        <ele>463</ele>
        <time>2012-12-21T12:18:47.000Z</time>
      </trkpt>
      <trkpt lat="45.45974" lon="5.98058">
        <ele>462</ele>
        <time>2012-12-21T12:18:49.000Z</time>
      </trkpt>
      <trkpt lat="45.45975" lon="5.98073">
        <ele>460</ele>
        <time>2012-12-21T12:18:52.000Z</time>
      </trkpt>
      <trkpt lat="45.45974" lon="5.98081">
        <ele>460</ele>
        <time>2012-12-21T12:18:54.000Z</time>
      </trkpt>
      <trkpt lat="45.45974" lon="5.98089">
        <ele>459</ele>
        <time>2012-12-21T12:18:56.000Z</time>
      </trkpt>
      <trkpt lat="45.45974" lon="5.98102">
        <ele>458</ele>
        <time>2012-12-21T12:18:59.000Z</time>
      </trkpt>
      <trkpt lat="45.45973" lon="5.98112">
        <ele>457</ele>
        <time>2012-12-21T12:19:01.000Z</time>
      </trkpt>
      <trkpt lat="45.45971" lon="5.98122">
        <ele>456</ele>
        <time>2012-12-21T12:19:03.000Z</time>
      </trkpt>
      <trkpt lat="45.45969" lon="5.98136">
        <ele>454</ele>
        <time>2012-12-21T12:19:06.000Z</time>
      </trkpt>
      <trkpt lat="45.45966" lon="5.9815">
        <ele>453</ele>
        <time>2012-12-21T12:19:09.000Z</time>
      </trkpt>
      <trkpt lat="45.45965" lon="5.98159">
        <ele>451</ele>
        <time>2012-12-21T12:19:11.000Z</time>
      </trkpt>
      <trkpt lat="45.45961" lon="5.98171">
        <ele>450</ele>
        <time>2012-12-21T12:19:14.000Z</time>
      </trkpt>
      <trkpt lat="45.45958" lon="5.98178">
        <ele>448</ele>
        <time>2012-12-21T12:19:16.000Z</time>
      </trkpt>
      <trkpt lat="45.45951" lon="5.98189">
        <ele>447</ele>
        <time>2012-12-21T12:19:19.000Z</time>
      </trkpt>
      <trkpt lat="45.45946" lon="5.98201">
        <ele>446</ele>
        <time>2012-12-21T12:19:22.000Z</time>
      </trkpt>
      <trkpt lat="45.45942" lon="5.98207">
        <ele>444</ele>
        <time>2012-12-21T12:19:24.000Z</time>
      </trkpt>
      <trkpt lat="45.45934" lon="5.98218">
        <ele>443</ele>
        <time>2012-12-21T12:19:27.000Z</time>
      </trkpt>
      <trkpt lat="45.45927" lon="5.98229">
        <ele>441</ele>
        <time>2012-12-21T12:19:29.000Z</time>
      </trkpt>
      <trkpt lat="45.45929" lon="5.98243">
        <ele>440</ele>
        <time>2012-12-21T12:19:32.000Z</time>
      </trkpt>
      <trkpt lat="45.45932" lon="5.98247">
        <ele>438</ele>
        <time>2012-12-21T12:19:34.000Z</time>
      </trkpt>
      <trkpt lat="45.45938" lon="5.98246">
        <ele>437</ele>
        <time>2012-12-21T12:19:37.000Z</time>
      </trkpt>
      <trkpt lat="45.45945" lon="5.98243">
        <ele>436</ele>
        <time>2012-12-21T12:19:39.000Z</time>
      </trkpt>
      <trkpt lat="45.45954" lon="5.98238">
        <ele>435</ele>
        <time>2012-12-21T12:19:42.000Z</time>
      </trkpt>
      <trkpt lat="45.45961" lon="5.98236">
        <ele>435</ele>
        <time>2012-12-21T12:19:44.000Z</time>
      </trkpt>
      <trkpt lat="45.45972" lon="5.98237">
        <ele>435</ele>
        <time>2012-12-21T12:19:47.000Z</time>
      </trkpt>
      <trkpt lat="45.45981" lon="5.98241">
        <ele>435</ele>
        <time>2012-12-21T12:19:50.000Z</time>
      </trkpt>
      <trkpt lat="45.4599" lon="5.98239">
        <ele>434</ele>
        <time>2012-12-21T12:19:53.000Z</time>
      </trkpt>
      <trkpt lat="45.46001" lon="5.98235">
        <ele>434</ele>
        <time>2012-12-21T12:19:56.000Z</time>
      </trkpt>
      <trkpt lat="45.46016" lon="5.98229">
        <ele>433</ele>
        <time>2012-12-21T12:20:02.000Z</time>
      </trkpt>
      <trkpt lat="45.46018" lon="5.98233">
        <ele>433</ele>
        <time>2012-12-21T12:20:05.000Z</time>
      </trkpt>
      <trkpt lat="45.46017" lon="5.98239">
        <ele>432</ele>
        <time>2012-12-21T12:20:07.000Z</time>
      </trkpt>
      <trkpt lat="45.46016" lon="5.98245">
        <ele>432</ele>
        <time>2012-12-21T12:20:09.000Z</time>
      </trkpt>
      <trkpt lat="45.46013" lon="5.98257">
        <ele>431</ele>
        <time>2012-12-21T12:20:12.000Z</time>
      </trkpt>
      <trkpt lat="45.46011" lon="5.98266">
        <ele>430</ele>
        <time>2012-12-21T12:20:14.000Z</time>
      </trkpt>
      <trkpt lat="45.46008" lon="5.9828">
        <ele>429</ele>
        <time>2012-12-21T12:20:17.000Z</time>
      </trkpt>
      <trkpt lat="45.46004" lon="5.98287">
        <ele>428</ele>
        <time>2012-12-21T12:20:19.000Z</time>
      </trkpt>
      <trkpt lat="45.46001" lon="5.98293">
        <ele>427</ele>
        <time>2012-12-21T12:20:21.000Z</time>
      </trkpt>
      <trkpt lat="45.45996" lon="5.983">
        <ele>426</ele>
        <time>2012-12-21T12:20:23.000Z</time>
      </trkpt>
      <trkpt lat="45.45992" lon="5.98306">
        <ele>425</ele>
        <time>2012-12-21T12:20:25.000Z</time>
      </trkpt>
      <trkpt lat="45.45984" lon="5.98317">
        <ele>424</ele>
        <time>2012-12-21T12:20:28.000Z</time>
      </trkpt>
      <trkpt lat="45.45979" lon="5.98324">
        <ele>422</ele>
        <time>2012-12-21T12:20:30.000Z</time>
      </trkpt>
      <trkpt lat="45.45972" lon="5.98336">
        <ele>421</ele>
        <time>2012-12-21T12:20:33.000Z</time>
      </trkpt>
      <trkpt lat="45.45968" lon="5.98346">
        <ele>419</ele>
        <time>2012-12-21T12:20:35.000Z</time>
      </trkpt>
      <trkpt lat="45.45962" lon="5.9836">
        <ele>416</ele>
        <time>2012-12-21T12:20:38.000Z</time>
      </trkpt>
      <trkpt lat="45.45959" lon="5.98375">
        <ele>414</ele>
        <time>2012-12-21T12:20:41.000Z</time>
      </trkpt>
      <trkpt lat="45.45959" lon="5.98389">
        <ele>411</ele>
        <time>2012-12-21T12:20:44.000Z</time>
      </trkpt>
      <trkpt lat="45.45961" lon="5.98397">
        <ele>409</ele>
        <time>2012-12-21T12:20:46.000Z</time>
      </trkpt>
      <trkpt lat="45.45964" lon="5.98408">
        <ele>407</ele>
        <time>2012-12-21T12:20:48.000Z</time>
      </trkpt>
      <trkpt lat="45.45968" lon="5.98414">
        <ele>406</ele>
        <time>2012-12-21T12:20:51.000Z</time>
      </trkpt>
      <trkpt lat="45.45972" lon="5.98423">
        <ele>405</ele>
        <time>2012-12-21T12:20:53.000Z</time>
      </trkpt>
      <trkpt lat="45.45975" lon="5.98429">
        <ele>404</ele>
        <time>2012-12-21T12:20:55.000Z</time>
      </trkpt>
      <trkpt lat="45.45986" lon="5.98449">
        <ele>403</ele>
        <time>2012-12-21T12:21:02.000Z</time>
      </trkpt>
      <trkpt lat="45.46006" lon="5.98478">
        <ele>402</ele>
        <time>2012-12-21T12:21:09.000Z</time>
      </trkpt>
      <trkpt lat="45.46019" lon="5.9849">
        <ele>401</ele>
        <time>2012-12-21T12:21:11.000Z</time>
      </trkpt>
      <trkpt lat="45.46028" lon="5.98495">
        <ele>399</ele>
        <time>2012-12-21T12:21:14.000Z</time>
      </trkpt>
      <trkpt lat="45.4604" lon="5.98496">
        <ele>397</ele>
        <time>2012-12-21T12:21:17.000Z</time>
      </trkpt>
      <trkpt lat="45.46052" lon="5.98492">
        <ele>395</ele>
        <time>2012-12-21T12:21:20.000Z</time>
      </trkpt>
      <trkpt lat="45.46061" lon="5.98489">
        <ele>394</ele>
        <time>2012-12-21T12:21:22.000Z</time>
      </trkpt>
      <trkpt lat="45.46068" lon="5.98487">
        <ele>393</ele>
        <time>2012-12-21T12:21:24.000Z</time>
      </trkpt>
      <trkpt lat="45.46075" lon="5.98486">
        <ele>392</ele>
        <time>2012-12-21T12:21:26.000Z</time>
      </trkpt>
      <trkpt lat="45.46099" lon="5.98482">
        <ele>391</ele>
        <time>2012-12-21T12:21:32.000Z</time>
      </trkpt>
      <trkpt lat="45.46111" lon="5.98479">
        <ele>390</ele>
        <time>2012-12-21T12:21:35.000Z</time>
      </trkpt>
      <trkpt lat="45.46119" lon="5.98476">
        <ele>389</ele>
        <time>2012-12-21T12:21:37.000Z</time>
      </trkpt>
      <trkpt lat="45.46127" lon="5.98473">
        <ele>387</ele>
        <time>2012-12-21T12:21:39.000Z</time>
      </trkpt>
      <trkpt lat="45.46136" lon="5.98468">
        <ele>385</ele>
        <time>2012-12-21T12:21:42.000Z</time>
      </trkpt>
      <trkpt lat="45.46143" lon="5.98465">
        <ele>384</ele>
        <time>2012-12-21T12:21:44.000Z</time>
      </trkpt>
      <trkpt lat="45.46151" lon="5.98461">
        <ele>383</ele>
        <time>2012-12-21T12:21:47.000Z</time>
      </trkpt>
      <trkpt lat="45.46157" lon="5.98455">
        <ele>382</ele>
        <time>2012-12-21T12:21:49.000Z</time>
      </trkpt>
      <trkpt lat="45.4617" lon="5.98438">
        <ele>381</ele>
        <time>2012-12-21T12:21:54.000Z</time>
      </trkpt>
      <trkpt lat="45.46188" lon="5.9842">
        <ele>380</ele>
        <time>2012-12-21T12:22:00.000Z</time>
      </trkpt>
      <trkpt lat="45.46196" lon="5.98415">
        <ele>379</ele>
        <time>2012-12-21T12:22:02.000Z</time>
      </trkpt>
      <trkpt lat="45.46203" lon="5.98412">
        <ele>378</ele>
        <time>2012-12-21T12:22:04.000Z</time>
      </trkpt>
      <trkpt lat="45.4621" lon="5.9841">
        <ele>376</ele>
        <time>2012-12-21T12:22:06.000Z</time>
      </trkpt>
      <trkpt lat="45.46219" lon="5.98408">
        <ele>373</ele>
        <time>2012-12-21T12:22:09.000Z</time>
      </trkpt>
      <trkpt lat="45.46225" lon="5.98407">
        <ele>371</ele>
        <time>2012-12-21T12:22:11.000Z</time>
      </trkpt>
      <trkpt lat="45.46233" lon="5.98405">
        <ele>369</ele>
        <time>2012-12-21T12:22:14.000Z</time>
      </trkpt>
      <trkpt lat="45.46237" lon="5.98402">
        <ele>367</ele>
        <time>2012-12-21T12:22:16.000Z</time>
      </trkpt>
      <trkpt lat="45.46241" lon="5.98387">
        <ele>365</ele>
        <time>2012-12-21T12:22:19.000Z</time>
      </trkpt>
      <trkpt lat="45.46243" lon="5.98374">
        <ele>364</ele>
        <time>2012-12-21T12:22:21.000Z</time>
      </trkpt>
      <trkpt lat="45.46252" lon="5.98322">
        <ele>365</ele>
        <time>2012-12-21T12:22:29.000Z</time>
      </trkpt>
      <trkpt lat="45.46255" lon="5.98305">
        <ele>366</ele>
        <time>2012-12-21T12:22:32.000Z</time>
      </trkpt>
      <trkpt lat="45.46257" lon="5.98279">
        <ele>366</ele>
        <time>2012-12-21T12:22:37.000Z</time>
      </trkpt>
      <trkpt lat="45.46265" lon="5.98245">
        <ele>365</ele>
        <time>2012-12-21T12:22:43.000Z</time>
      </trkpt>
      <trkpt lat="45.46273" lon="5.98215">
        <ele>364</ele>
        <time>2012-12-21T12:22:51.000Z</time>
      </trkpt>
      <trkpt lat="45.46278" lon="5.98211">
        <ele>364</ele>
        <time>2012-12-21T12:22:54.000Z</time>
      </trkpt>
      <trkpt lat="45.46282" lon="5.98213">
        <ele>363</ele>
        <time>2012-12-21T12:22:57.000Z</time>
      </trkpt>
      <trkpt lat="45.4628" lon="5.98223">
        <ele>363</ele>
        <time>2012-12-21T12:23:00.000Z</time>
      </trkpt>
      <trkpt lat="45.46278" lon="5.98236">
        <ele>362</ele>
        <time>2012-12-21T12:23:03.000Z</time>
      </trkpt>
      <trkpt lat="45.46278" lon="5.98246">
        <ele>362</ele>
        <time>2012-12-21T12:23:05.000Z</time>
      </trkpt>
      <trkpt lat="45.46279" lon="5.98259">
        <ele>361</ele>
        <time>2012-12-21T12:23:08.000Z</time>
      </trkpt>
      <trkpt lat="45.46281" lon="5.98272">
        <ele>360</ele>
        <time>2012-12-21T12:23:11.000Z</time>
      </trkpt>
      <trkpt lat="45.46284" lon="5.98284">
        <ele>359</ele>
        <time>2012-12-21T12:23:14.000Z</time>
      </trkpt>
      <trkpt lat="45.46285" lon="5.98293">
        <ele>358</ele>
        <time>2012-12-21T12:23:16.000Z</time>
      </trkpt>
      <trkpt lat="45.46287" lon="5.98307">
        <ele>357</ele>
        <time>2012-12-21T12:23:19.000Z</time>
      </trkpt>
      <trkpt lat="45.46291" lon="5.98315">
        <ele>355</ele>
        <time>2012-12-21T12:23:21.000Z</time>
      </trkpt>
      <trkpt lat="45.46298" lon="5.98325">
        <ele>353</ele>
        <time>2012-12-21T12:23:24.000Z</time>
      </trkpt>
      <trkpt lat="45.46305" lon="5.98331">
        <ele>351</ele>
        <time>2012-12-21T12:23:27.000Z</time>
      </trkpt>
      <trkpt lat="45.46311" lon="5.98341">
        <ele>348</ele>
        <time>2012-12-21T12:23:30.000Z</time>
      </trkpt>
      <trkpt lat="45.46315" lon="5.9835">
        <ele>346</ele>
        <time>2012-12-21T12:23:32.000Z</time>
      </trkpt>
      <trkpt lat="45.46317" lon="5.9836">
        <ele>343</ele>
        <time>2012-12-21T12:23:34.000Z</time>
      </trkpt>
      <trkpt lat="45.4632" lon="5.98376">
        <ele>340</ele>
        <time>2012-12-21T12:23:37.000Z</time>
      </trkpt>
      <trkpt lat="45.46323" lon="5.98386">
        <ele>338</ele>
        <time>2012-12-21T12:23:39.000Z</time>
      </trkpt>
      <trkpt lat="45.46328" lon="5.98397">
        <ele>336</ele>
        <time>2012-12-21T12:23:41.000Z</time>
      </trkpt>
      <trkpt lat="45.46336" lon="5.98414">
        <ele>333</ele>
        <time>2012-12-21T12:23:44.000Z</time>
      </trkpt>
      <trkpt lat="45.4634" lon="5.98424">
        <ele>331</ele>
        <time>2012-12-21T12:23:46.000Z</time>
      </trkpt>
      <trkpt lat="45.46342" lon="5.98432">
        <ele>329</ele>
        <time>2012-12-21T12:23:48.000Z</time>
      </trkpt>
      <trkpt lat="45.46347" lon="5.98443">
        <ele>327</ele>
        <time>2012-12-21T12:23:51.000Z</time>
      </trkpt>
      <trkpt lat="45.46349" lon="5.98451">
        <ele>326</ele>
        <time>2012-12-21T12:23:53.000Z</time>
      </trkpt>
      <trkpt lat="45.46351" lon="5.98466">
        <ele>325</ele>
        <time>2012-12-21T12:23:56.000Z</time>
      </trkpt>
      <trkpt lat="45.4635" lon="5.98475">
        <ele>324</ele>
        <time>2012-12-21T12:23:58.000Z</time>
      </trkpt>
      <trkpt lat="45.46348" lon="5.98483">
        <ele>323</ele>
        <time>2012-12-21T12:24:00.000Z</time>
      </trkpt>
      <trkpt lat="45.46341" lon="5.98508">
        <ele>322</ele>
        <time>2012-12-21T12:24:05.000Z</time>
      </trkpt>
      <trkpt lat="45.46336" lon="5.98526">
        <ele>321</ele>
        <time>2012-12-21T12:24:10.000Z</time>
      </trkpt>
      <trkpt lat="45.46333" lon="5.9854">
        <ele>320</ele>
        <time>2012-12-21T12:24:13.000Z</time>
      </trkpt>
      <trkpt lat="45.4633" lon="5.98554">
        <ele>319</ele>
        <time>2012-12-21T12:24:16.000Z</time>
      </trkpt>
      <trkpt lat="45.4633" lon="5.98569">
        <ele>318</ele>
        <time>2012-12-21T12:24:19.000Z</time>
      </trkpt>
      <trkpt lat="45.46331" lon="5.98589">
        <ele>316</ele>
        <time>2012-12-21T12:24:22.000Z</time>
      </trkpt>
      <trkpt lat="45.46331" lon="5.986">
        <ele>314</ele>
        <time>2012-12-21T12:24:24.000Z</time>
      </trkpt>
      <trkpt lat="45.46331" lon="5.98614">
        <ele>313</ele>
        <time>2012-12-21T12:24:27.000Z</time>
      </trkpt>
      <trkpt lat="45.46334" lon="5.9863">
        <ele>311</ele>
        <time>2012-12-21T12:24:30.000Z</time>
      </trkpt>
      <trkpt lat="45.46335" lon="5.9864">
        <ele>309</ele>
        <time>2012-12-21T12:24:32.000Z</time>
      </trkpt>
      <trkpt lat="45.46338" lon="5.9865">
        <ele>307</ele>
        <time>2012-12-21T12:24:34.000Z</time>
      </trkpt>
      <trkpt lat="45.46341" lon="5.98666">
        <ele>306</ele>
        <time>2012-12-21T12:24:37.000Z</time>
      </trkpt>
      <trkpt lat="45.46344" lon="5.98677">
        <ele>304</ele>
        <time>2012-12-21T12:24:39.000Z</time>
      </trkpt>
      <trkpt lat="45.4635" lon="5.98696">
        <ele>302</ele>
        <time>2012-12-21T12:24:42.000Z</time>
      </trkpt>
      <trkpt lat="45.46354" lon="5.98706">
        <ele>301</ele>
        <time>2012-12-21T12:24:44.000Z</time>
      </trkpt>
      <trkpt lat="45.46357" lon="5.98717">
        <ele>299</ele>
        <time>2012-12-21T12:24:46.000Z</time>
      </trkpt>
      <trkpt lat="45.46359" lon="5.98727">
        <ele>298</ele>
        <time>2012-12-21T12:24:48.000Z</time>
      </trkpt>
      <trkpt lat="45.46362" lon="5.98742">
        <ele>296</ele>
        <time>2012-12-21T12:24:51.000Z</time>
      </trkpt>
      <trkpt lat="45.46364" lon="5.98751">
        <ele>295</ele>
        <time>2012-12-21T12:24:53.000Z</time>
      </trkpt>
      <trkpt lat="45.46367" lon="5.98765">
        <ele>294</ele>
        <time>2012-12-21T12:24:56.000Z</time>
      </trkpt>
      <trkpt lat="45.46371" lon="5.9878">
        <ele>293</ele>
        <time>2012-12-21T12:24:59.000Z</time>
      </trkpt>
      <trkpt lat="45.46375" lon="5.988">
        <ele>292</ele>
        <time>2012-12-21T12:25:02.000Z</time>
      </trkpt>
      <trkpt lat="45.46378" lon="5.98824">
        <ele>291</ele>
        <time>2012-12-21T12:25:06.000Z</time>
      </trkpt>
      <trkpt lat="45.46381" lon="5.98864">
        <ele>290</ele>
        <time>2012-12-21T12:25:13.000Z</time>
      </trkpt>
      <trkpt lat="45.46384" lon="5.98896">
        <ele>289</ele>
        <time>2012-12-21T12:25:20.000Z</time>
      </trkpt>
      <trkpt lat="45.46383" lon="5.98907">
        <ele>289</ele>
        <time>2012-12-21T12:25:22.000Z</time>
      </trkpt>
      <trkpt lat="45.46386" lon="5.98942">
        <ele>289</ele>
        <time>2012-12-21T12:25:32.000Z</time>
      </trkpt>
      <trkpt lat="45.4639" lon="5.98955">
        <ele>289</ele>
        <time>2012-12-21T12:25:35.000Z</time>
      </trkpt>
      <trkpt lat="45.46391" lon="5.98972">
        <ele>289</ele>
        <time>2012-12-21T12:25:38.000Z</time>
      </trkpt>
      <trkpt lat="45.46394" lon="5.9904">
        <ele>289</ele>
        <time>2012-12-21T12:25:51.000Z</time>
      </trkpt>
      <trkpt lat="45.46396" lon="5.99072">
        <ele>288</ele>
        <time>2012-12-21T12:25:58.000Z</time>
      </trkpt>
      <trkpt lat="45.46395" lon="5.99108">
        <ele>288</ele>
        <time>2012-12-21T12:26:05.000Z</time>
      </trkpt>
      <trkpt lat="45.46396" lon="5.99124">
        <ele>288</ele>
        <time>2012-12-21T12:26:08.000Z</time>
      </trkpt>
      <trkpt lat="45.46401" lon="5.99132">
        <ele>287</ele>
        <time>2012-12-21T12:26:10.000Z</time>
      </trkpt>
      <trkpt lat="45.46408" lon="5.99138">
        <ele>287</ele>
        <time>2012-12-21T12:26:12.000Z</time>
      </trkpt>
      <trkpt lat="45.46426" lon="5.99156">
        <ele>286</ele>
        <time>2012-12-21T12:26:17.000Z</time>
      </trkpt>
      <trkpt lat="45.46442" lon="5.9917">
        <ele>285</ele>
        <time>2012-12-21T12:26:22.000Z</time>
      </trkpt>
      <trkpt lat="45.46453" lon="5.99184">
        <ele>285</ele>
        <time>2012-12-21T12:26:27.000Z</time>
      </trkpt>
      <trkpt lat="45.46458" lon="5.99191">
        <ele>284</ele>
        <time>2012-12-21T12:26:29.000Z</time>
      </trkpt>
      <trkpt lat="45.46474" lon="5.99228">
        <ele>284</ele>
        <time>2012-12-21T12:26:40.000Z</time>
      </trkpt>
      <trkpt lat="45.4648" lon="5.9924">
        <ele>283</ele>
        <time>2012-12-21T12:26:43.000Z</time>
      </trkpt>
      <trkpt lat="45.46513" lon="5.99297">
        <ele>282</ele>
        <time>2012-12-21T12:26:56.000Z</time>
      </trkpt>
      <trkpt lat="45.46535" lon="5.9933">
        <ele>281</ele>
        <time>2012-12-21T12:27:04.000Z</time>
      </trkpt>
      <trkpt lat="45.46542" lon="5.99334">
        <ele>280</ele>
        <time>2012-12-21T12:27:07.000Z</time>
      </trkpt>
      <trkpt lat="45.46551" lon="5.99336">
        <ele>280</ele>
        <time>2012-12-21T12:27:10.000Z</time>
      </trkpt>
      <trkpt lat="45.46555" lon="5.99338">
        <ele>279</ele>
        <time>2012-12-21T12:27:12.000Z</time>
      </trkpt>
      <trkpt lat="45.46561" lon="5.99344">
        <ele>279</ele>
        <time>2012-12-21T12:27:15.000Z</time>
      </trkpt>
      <trkpt lat="45.46576" lon="5.99365">
        <ele>278</ele>
        <time>2012-12-21T12:27:20.000Z</time>
      </trkpt>
      <trkpt lat="45.46597" lon="5.99388">
        <ele>277</ele>
        <time>2012-12-21T12:27:28.000Z</time>
      </trkpt>
      <trkpt lat="45.46606" lon="5.99391">
        <ele>277</ele>
        <time>2012-12-21T12:27:31.000Z</time>
      </trkpt>
      <trkpt lat="45.46618" lon="5.99394">
        <ele>277</ele>
        <time>2012-12-21T12:27:33.000Z</time>
      </trkpt>
      <trkpt lat="45.46629" lon="5.99394">
        <ele>277</ele>
        <time>2012-12-21T12:27:36.000Z</time>
      </trkpt>
      <trkpt lat="45.4664" lon="5.99392">
        <ele>276</ele>
        <time>2012-12-21T12:27:38.000Z</time>
      </trkpt>
      <trkpt lat="45.46654" lon="5.99388">
        <ele>275</ele>
        <time>2012-12-21T12:27:43.000Z</time>
      </trkpt>
      <trkpt lat="45.46661" lon="5.99385">
        <ele>275</ele>
        <time>2012-12-21T12:27:45.000Z</time>
      </trkpt>
      <trkpt lat="45.46682" lon="5.99377">
        <ele>274</ele>
        <time>2012-12-21T12:27:51.000Z</time>
      </trkpt>
      <trkpt lat="45.467" lon="5.99366">
        <ele>274</ele>
        <time>2012-12-21T12:27:56.000Z</time>
      </trkpt>
      <trkpt lat="45.4671" lon="5.99358">
        <ele>274</ele>
        <time>2012-12-21T12:27:59.000Z</time>
      </trkpt>
      <trkpt lat="45.4671" lon="5.99358">
        <ele>274</ele>
        <time>2012-12-21T12:28:00.000Z</time>
      </trkpt>
    </trkseg>
  </trk>
</gpx>